<?xml version="1.0" encoding="UTF-8" standalone="no" ?>
<gpx xmlns="http://www.topografix.com/GPX/1/1" xmlns:xsi="http://www.w3.org/2001/XMLSchema-instance" xsi:schemaLocation="http://www.topografix.com/GPX/1/1 http://www.topografix.com/GPX/1/1/gpx.xsd" version="1.1" creator="VisuGPX - https://www.visugpx.com">
  <metadata>
    <name>ST_RAD_17km  -400m</name>
    <desc><![CDATA[17 km -400]]></desc>
  </metadata>
  <trk>
    <name><![CDATA[st RA 17km +]]></name>
    <trkseg>
      <trkpt lat="44.33663" lon="2.62538">
        <ele>670.6569824</ele>
        <time>2014-03-15T08:30:14Z</time>
      </trkpt>
      <trkpt lat="44.33659" lon="2.62495">
        <ele>668.2536621</ele>
        <time>2014-03-15T08:30:20Z</time>
      </trkpt>
      <trkpt lat="44.33655" lon="2.62442">
        <ele>664.888916</ele>
        <time>2014-03-15T08:30:26Z</time>
      </trkpt>
      <trkpt lat="44.33651" lon="2.62375">
        <ele>660.0822754</ele>
        <time>2014-03-15T08:30:34Z</time>
      </trkpt>
      <trkpt lat="44.33652" lon="2.6236">
        <ele>659.1210938</ele>
        <time>2014-03-15T08:30:36Z</time>
      </trkpt>
      <trkpt lat="44.3366" lon="2.62323">
        <ele>657.6791992</ele>
        <time>2014-03-15T08:30:41Z</time>
      </trkpt>
      <trkpt lat="44.33678" lon="2.62266">
        <ele>651.9111328</ele>
        <time>2014-03-15T08:30:49Z</time>
      </trkpt>
      <trkpt lat="44.33698" lon="2.62199">
        <ele>647.1044922</ele>
        <time>2014-03-15T08:30:57Z</time>
      </trkpt>
      <trkpt lat="44.3371" lon="2.62151">
        <ele>644.2207031</ele>
        <time>2014-03-15T08:31:02Z</time>
      </trkpt>
      <trkpt lat="44.33711" lon="2.62107">
        <ele>641.8173828</ele>
        <time>2014-03-15T08:31:06Z</time>
      </trkpt>
      <trkpt lat="44.33699" lon="2.62007">
        <ele>639.4140625</ele>
        <time>2014-03-15T08:31:15Z</time>
      </trkpt>
      <trkpt lat="44.33682" lon="2.61956">
        <ele>637.4914551</ele>
        <time>2014-03-15T08:31:20Z</time>
      </trkpt>
      <trkpt lat="44.33654" lon="2.61919">
        <ele>636.0495605</ele>
        <time>2014-03-15T08:31:25Z</time>
      </trkpt>
      <trkpt lat="44.33647" lon="2.61914">
        <ele>635.5686035</ele>
        <time>2014-03-15T08:31:26Z</time>
      </trkpt>
      <trkpt lat="44.33587" lon="2.61875">
        <ele>632.6848145</ele>
        <time>2014-03-15T08:31:35Z</time>
      </trkpt>
      <trkpt lat="44.33561" lon="2.61854">
        <ele>631.2429199</ele>
        <time>2014-03-15T08:31:39Z</time>
      </trkpt>
      <trkpt lat="44.33539" lon="2.61807">
        <ele>629.3200684</ele>
        <time>2014-03-15T08:31:44Z</time>
      </trkpt>
      <trkpt lat="44.33534" lon="2.61758">
        <ele>626.9169922</ele>
        <time>2014-03-15T08:31:48Z</time>
      </trkpt>
      <trkpt lat="44.33536" lon="2.61745">
        <ele>626.4362793</ele>
        <time>2014-03-15T08:31:49Z</time>
      </trkpt>
      <trkpt lat="44.33555" lon="2.61627">
        <ele>621.1491699</ele>
        <time>2014-03-15T08:31:58Z</time>
      </trkpt>
      <trkpt lat="44.33586" lon="2.61513">
        <ele>614.9003906</ele>
        <time>2014-03-15T08:32:07Z</time>
      </trkpt>
      <trkpt lat="44.33624" lon="2.61402">
        <ele>609.1325684</ele>
        <time>2014-03-15T08:32:16Z</time>
      </trkpt>
      <trkpt lat="44.33657" lon="2.61309">
        <ele>605.2873535</ele>
        <time>2014-03-15T08:32:24Z</time>
      </trkpt>
      <trkpt lat="44.33677" lon="2.6125">
        <ele>604.3261719</ele>
        <time>2014-03-15T08:32:30Z</time>
      </trkpt>
      <trkpt lat="44.33678" lon="2.61204">
        <ele>602.8837891</ele>
        <time>2014-03-15T08:32:35Z</time>
      </trkpt>
      <trkpt lat="44.33665" lon="2.61177">
        <ele>600.9611816</ele>
        <time>2014-03-15T08:32:38Z</time>
      </trkpt>
      <trkpt lat="44.33655" lon="2.61159">
        <ele>600</ele>
        <time>2014-03-15T08:32:40Z</time>
      </trkpt>
      <trkpt lat="44.33644" lon="2.61113">
        <ele>597.1159668</ele>
        <time>2014-03-15T08:32:44Z</time>
      </trkpt>
      <trkpt lat="44.33625" lon="2.61057">
        <ele>594.7126465</ele>
        <time>2014-03-15T08:32:49Z</time>
      </trkpt>
      <trkpt lat="44.33617" lon="2.6105">
        <ele>594.7126465</ele>
        <time>2014-03-15T08:32:50Z</time>
      </trkpt>
      <trkpt lat="44.33586" lon="2.61024">
        <ele>594.7126465</ele>
        <time>2014-03-15T08:32:55Z</time>
      </trkpt>
      <trkpt lat="44.3358" lon="2.61016">
        <ele>594.7126465</ele>
        <time>2014-03-15T08:32:58Z</time>
      </trkpt>
      <trkpt lat="44.33566" lon="2.60995">
        <ele>596.1547852</ele>
        <time>2014-03-15T08:33:04Z</time>
      </trkpt>
      <trkpt lat="44.33557" lon="2.60971">
        <ele>598.5578613</ele>
        <time>2014-03-15T08:33:11Z</time>
      </trkpt>
      <trkpt lat="44.33552" lon="2.60959">
        <ele>599.5192871</ele>
        <time>2014-03-15T08:33:17Z</time>
      </trkpt>
      <trkpt lat="44.33547" lon="2.6094">
        <ele>600</ele>
        <time>2014-03-15T08:33:23Z</time>
      </trkpt>
      <trkpt lat="44.33544" lon="2.60928">
        <ele>600</ele>
        <time>2014-03-15T08:33:29Z</time>
      </trkpt>
      <trkpt lat="44.33543" lon="2.60921">
        <ele>600</ele>
        <time>2014-03-15T08:33:35Z</time>
      </trkpt>
      <trkpt lat="44.33539" lon="2.60908">
        <ele>600.4807129</ele>
        <time>2014-03-15T08:33:40Z</time>
      </trkpt>
      <trkpt lat="44.33531" lon="2.60885">
        <ele>601.4418945</ele>
        <time>2014-03-15T08:33:46Z</time>
      </trkpt>
      <trkpt lat="44.33524" lon="2.60866">
        <ele>601.9226074</ele>
        <time>2014-03-15T08:33:51Z</time>
      </trkpt>
      <trkpt lat="44.33516" lon="2.60836">
        <ele>602.4030762</ele>
        <time>2014-03-15T08:33:58Z</time>
      </trkpt>
      <trkpt lat="44.33511" lon="2.60791">
        <ele>602.4030762</ele>
        <time>2014-03-15T08:34:07Z</time>
      </trkpt>
      <trkpt lat="44.33504" lon="2.60765">
        <ele>602.4030762</ele>
        <time>2014-03-15T08:34:12Z</time>
      </trkpt>
      <trkpt lat="44.33489" lon="2.60753">
        <ele>603.364502</ele>
        <time>2014-03-15T08:34:17Z</time>
      </trkpt>
      <trkpt lat="44.33469" lon="2.60738">
        <ele>604.8066406</ele>
        <time>2014-03-15T08:34:24Z</time>
      </trkpt>
      <trkpt lat="44.33457" lon="2.60714">
        <ele>605.7680664</ele>
        <time>2014-03-15T08:34:31Z</time>
      </trkpt>
      <trkpt lat="44.33452" lon="2.60684">
        <ele>605.2873535</ele>
        <time>2014-03-15T08:34:38Z</time>
      </trkpt>
      <trkpt lat="44.33446" lon="2.60652">
        <ele>604.8066406</ele>
        <time>2014-03-15T08:34:45Z</time>
      </trkpt>
      <trkpt lat="44.3344" lon="2.60625">
        <ele>603.364502</ele>
        <time>2014-03-15T08:34:51Z</time>
      </trkpt>
      <trkpt lat="44.33428" lon="2.60617">
        <ele>604.3261719</ele>
        <time>2014-03-15T08:34:55Z</time>
      </trkpt>
      <trkpt lat="44.33408" lon="2.60618">
        <ele>604.3261719</ele>
        <time>2014-03-15T08:35:02Z</time>
      </trkpt>
      <trkpt lat="44.33393" lon="2.60614">
        <ele>606.2485352</ele>
        <time>2014-03-15T08:35:08Z</time>
      </trkpt>
      <trkpt lat="44.33368" lon="2.6061">
        <ele>609.6132813</ele>
        <time>2014-03-15T08:35:18Z</time>
      </trkpt>
      <trkpt lat="44.33356" lon="2.60615">
        <ele>612.0166016</ele>
        <time>2014-03-15T08:35:24Z</time>
      </trkpt>
      <trkpt lat="44.33341" lon="2.6062">
        <ele>613.9389648</ele>
        <time>2014-03-15T08:35:32Z</time>
      </trkpt>
      <trkpt lat="44.33325" lon="2.60623">
        <ele>615.8618164</ele>
        <time>2014-03-15T08:35:40Z</time>
      </trkpt>
      <trkpt lat="44.33311" lon="2.60627">
        <ele>617.3037109</ele>
        <time>2014-03-15T08:35:47Z</time>
      </trkpt>
      <trkpt lat="44.33292" lon="2.60637">
        <ele>619.2263184</ele>
        <time>2014-03-15T08:35:57Z</time>
      </trkpt>
      <trkpt lat="44.33279" lon="2.60647">
        <ele>620.668457</ele>
        <time>2014-03-15T08:36:05Z</time>
      </trkpt>
      <trkpt lat="44.3327" lon="2.60655">
        <ele>621.6296387</ele>
        <time>2014-03-15T08:36:11Z</time>
      </trkpt>
      <trkpt lat="44.33263" lon="2.60668">
        <ele>623.0717773</ele>
        <time>2014-03-15T08:36:18Z</time>
      </trkpt>
      <trkpt lat="44.33255" lon="2.6068">
        <ele>624.5136719</ele>
        <time>2014-03-15T08:36:25Z</time>
      </trkpt>
      <trkpt lat="44.33247" lon="2.60692">
        <ele>625.9555664</ele>
        <time>2014-03-15T08:36:32Z</time>
      </trkpt>
      <trkpt lat="44.33236" lon="2.60709">
        <ele>627.3977051</ele>
        <time>2014-03-15T08:36:41Z</time>
      </trkpt>
      <trkpt lat="44.33224" lon="2.60725">
        <ele>629.3200684</ele>
        <time>2014-03-15T08:36:49Z</time>
      </trkpt>
      <trkpt lat="44.33219" lon="2.60739">
        <ele>630.762207</ele>
        <time>2014-03-15T08:36:56Z</time>
      </trkpt>
      <trkpt lat="44.33214" lon="2.6076">
        <ele>632.2041016</ele>
        <time>2014-03-15T08:37:04Z</time>
      </trkpt>
      <trkpt lat="44.33208" lon="2.60772">
        <ele>633.1652832</ele>
        <time>2014-03-15T08:37:10Z</time>
      </trkpt>
      <trkpt lat="44.33199" lon="2.60786">
        <ele>634.126709</ele>
        <time>2014-03-15T08:37:17Z</time>
      </trkpt>
      <trkpt lat="44.3319" lon="2.60805">
        <ele>634.6074219</ele>
        <time>2014-03-15T08:37:24Z</time>
      </trkpt>
      <trkpt lat="44.33178" lon="2.60819">
        <ele>635.0881348</ele>
        <time>2014-03-15T08:37:31Z</time>
      </trkpt>
      <trkpt lat="44.33163" lon="2.60832">
        <ele>636.0495605</ele>
        <time>2014-03-15T08:37:38Z</time>
      </trkpt>
      <trkpt lat="44.33145" lon="2.60847">
        <ele>636.0495605</ele>
        <time>2014-03-15T08:37:46Z</time>
      </trkpt>
      <trkpt lat="44.33126" lon="2.60866">
        <ele>636.5302734</ele>
        <time>2014-03-15T08:37:54Z</time>
      </trkpt>
      <trkpt lat="44.33105" lon="2.60888">
        <ele>637.4914551</ele>
        <time>2014-03-15T08:38:03Z</time>
      </trkpt>
      <trkpt lat="44.33089" lon="2.60909">
        <ele>637.972168</ele>
        <time>2014-03-15T08:38:11Z</time>
      </trkpt>
      <trkpt lat="44.33074" lon="2.60929">
        <ele>639.4140625</ele>
        <time>2014-03-15T08:38:19Z</time>
      </trkpt>
      <trkpt lat="44.33061" lon="2.60943">
        <ele>640.3754883</ele>
        <time>2014-03-15T08:38:26Z</time>
      </trkpt>
      <trkpt lat="44.33045" lon="2.60952">
        <ele>641.8173828</ele>
        <time>2014-03-15T08:38:33Z</time>
      </trkpt>
      <trkpt lat="44.33028" lon="2.60962">
        <ele>642.7788086</ele>
        <time>2014-03-15T08:38:40Z</time>
      </trkpt>
      <trkpt lat="44.33009" lon="2.60974">
        <ele>644.7011719</ele>
        <time>2014-03-15T08:38:48Z</time>
      </trkpt>
      <trkpt lat="44.32996" lon="2.60984">
        <ele>645.1818848</ele>
        <time>2014-03-15T08:38:55Z</time>
      </trkpt>
      <trkpt lat="44.32975" lon="2.61005">
        <ele>646.6240234</ele>
        <time>2014-03-15T08:39:05Z</time>
      </trkpt>
      <trkpt lat="44.32959" lon="2.61022">
        <ele>648.065918</ele>
        <time>2014-03-15T08:39:13Z</time>
      </trkpt>
      <trkpt lat="44.32942" lon="2.6104">
        <ele>648.5463867</ele>
        <time>2014-03-15T08:39:21Z</time>
      </trkpt>
      <trkpt lat="44.32927" lon="2.61057">
        <ele>649.5078125</ele>
        <time>2014-03-15T08:39:28Z</time>
      </trkpt>
      <trkpt lat="44.32912" lon="2.61076">
        <ele>650.4692383</ele>
        <time>2014-03-15T08:39:36Z</time>
      </trkpt>
      <trkpt lat="44.32892" lon="2.61106">
        <ele>651.4304199</ele>
        <time>2014-03-15T08:39:46Z</time>
      </trkpt>
      <trkpt lat="44.32875" lon="2.61133">
        <ele>651.9111328</ele>
        <time>2014-03-15T08:39:54Z</time>
      </trkpt>
      <trkpt lat="44.32859" lon="2.61161">
        <ele>652.8725586</ele>
        <time>2014-03-15T08:40:02Z</time>
      </trkpt>
      <trkpt lat="44.32843" lon="2.61186">
        <ele>653.3532715</ele>
        <time>2014-03-15T08:40:10Z</time>
      </trkpt>
      <trkpt lat="44.32827" lon="2.61212">
        <ele>653.8339844</ele>
        <time>2014-03-15T08:40:18Z</time>
      </trkpt>
      <trkpt lat="44.32813" lon="2.61237">
        <ele>653.3532715</ele>
        <time>2014-03-15T08:40:25Z</time>
      </trkpt>
      <trkpt lat="44.32799" lon="2.61265">
        <ele>653.3532715</ele>
        <time>2014-03-15T08:40:32Z</time>
      </trkpt>
      <trkpt lat="44.3279" lon="2.61291">
        <ele>654.795166</ele>
        <time>2014-03-15T08:40:38Z</time>
      </trkpt>
      <trkpt lat="44.32774" lon="2.61335">
        <ele>655.2758789</ele>
        <time>2014-03-15T08:40:48Z</time>
      </trkpt>
      <trkpt lat="44.32762" lon="2.61369">
        <ele>654.795166</ele>
        <time>2014-03-15T08:40:56Z</time>
      </trkpt>
      <trkpt lat="44.32752" lon="2.61404">
        <ele>656.2370605</ele>
        <time>2014-03-15T08:41:03Z</time>
      </trkpt>
      <trkpt lat="44.32745" lon="2.61441">
        <ele>656.2370605</ele>
        <time>2014-03-15T08:41:10Z</time>
      </trkpt>
      <trkpt lat="44.32736" lon="2.61482">
        <ele>655.7565918</ele>
        <time>2014-03-15T08:41:18Z</time>
      </trkpt>
      <trkpt lat="44.32726" lon="2.61524">
        <ele>654.795166</ele>
        <time>2014-03-15T08:41:26Z</time>
      </trkpt>
      <trkpt lat="44.32716" lon="2.61566">
        <ele>654.795166</ele>
        <time>2014-03-15T08:41:33Z</time>
      </trkpt>
      <trkpt lat="44.32706" lon="2.6162">
        <ele>654.795166</ele>
        <time>2014-03-15T08:41:41Z</time>
      </trkpt>
      <trkpt lat="44.32699" lon="2.61656">
        <ele>654.3146973</ele>
        <time>2014-03-15T08:41:46Z</time>
      </trkpt>
      <trkpt lat="44.32685" lon="2.61714">
        <ele>654.3146973</ele>
        <time>2014-03-15T08:41:54Z</time>
      </trkpt>
      <trkpt lat="44.32676" lon="2.61753">
        <ele>653.8339844</ele>
        <time>2014-03-15T08:41:59Z</time>
      </trkpt>
      <trkpt lat="44.32667" lon="2.61815">
        <ele>653.3532715</ele>
        <time>2014-03-15T08:42:07Z</time>
      </trkpt>
      <trkpt lat="44.32663" lon="2.6184">
        <ele>654.3146973</ele>
        <time>2014-03-15T08:42:10Z</time>
      </trkpt>
      <trkpt lat="44.32651" lon="2.61897">
        <ele>654.795166</ele>
        <time>2014-03-15T08:42:17Z</time>
      </trkpt>
      <trkpt lat="44.32639" lon="2.61943">
        <ele>655.2758789</ele>
        <time>2014-03-15T08:42:23Z</time>
      </trkpt>
      <trkpt lat="44.32627" lon="2.61977">
        <ele>655.7565918</ele>
        <time>2014-03-15T08:42:28Z</time>
      </trkpt>
      <trkpt lat="44.32616" lon="2.62012">
        <ele>655.7565918</ele>
        <time>2014-03-15T08:42:33Z</time>
      </trkpt>
      <trkpt lat="44.32614" lon="2.62019">
        <ele>655.7565918</ele>
        <time>2014-03-15T08:42:34Z</time>
      </trkpt>
      <trkpt lat="44.32598" lon="2.62058">
        <ele>655.7565918</ele>
        <time>2014-03-15T08:42:41Z</time>
      </trkpt>
      <trkpt lat="44.32582" lon="2.62085">
        <ele>657.6791992</ele>
        <time>2014-03-15T08:42:48Z</time>
      </trkpt>
      <trkpt lat="44.32565" lon="2.62105">
        <ele>657.6791992</ele>
        <time>2014-03-15T08:42:55Z</time>
      </trkpt>
      <trkpt lat="44.32553" lon="2.6213">
        <ele>659.6018066</ele>
        <time>2014-03-15T08:43:02Z</time>
      </trkpt>
      <trkpt lat="44.32537" lon="2.62165">
        <ele>659.1210938</ele>
        <time>2014-03-15T08:43:11Z</time>
      </trkpt>
      <trkpt lat="44.32523" lon="2.62201">
        <ele>658.6403809</ele>
        <time>2014-03-15T08:43:19Z</time>
      </trkpt>
      <trkpt lat="44.32508" lon="2.62242">
        <ele>658.1599121</ele>
        <time>2014-03-15T08:43:27Z</time>
      </trkpt>
      <trkpt lat="44.32495" lon="2.62276">
        <ele>656.7177734</ele>
        <time>2014-03-15T08:43:35Z</time>
      </trkpt>
      <trkpt lat="44.32484" lon="2.62307">
        <ele>655.7565918</ele>
        <time>2014-03-15T08:43:41Z</time>
      </trkpt>
      <trkpt lat="44.32468" lon="2.62347">
        <ele>654.3146973</ele>
        <time>2014-03-15T08:43:47Z</time>
      </trkpt>
      <trkpt lat="44.32446" lon="2.62403">
        <ele>650.4692383</ele>
        <time>2014-03-15T08:43:54Z</time>
      </trkpt>
      <trkpt lat="44.32425" lon="2.62455">
        <ele>649.5078125</ele>
        <time>2014-03-15T08:44:01Z</time>
      </trkpt>
      <trkpt lat="44.32423" lon="2.62461">
        <ele>649.5078125</ele>
        <time>2014-03-15T08:44:02Z</time>
      </trkpt>
      <trkpt lat="44.3241" lon="2.62491">
        <ele>649.0270996</ele>
        <time>2014-03-15T08:44:07Z</time>
      </trkpt>
      <trkpt lat="44.32407" lon="2.62501">
        <ele>648.5463867</ele>
        <time>2014-03-15T08:44:09Z</time>
      </trkpt>
      <trkpt lat="44.32391" lon="2.62541">
        <ele>649.9885254</ele>
        <time>2014-03-15T08:44:16Z</time>
      </trkpt>
      <trkpt lat="44.32377" lon="2.62574">
        <ele>649.9885254</ele>
        <time>2014-03-15T08:44:21Z</time>
      </trkpt>
      <trkpt lat="44.32361" lon="2.62611">
        <ele>647.5852051</ele>
        <time>2014-03-15T08:44:26Z</time>
      </trkpt>
      <trkpt lat="44.32338" lon="2.62664">
        <ele>646.6240234</ele>
        <time>2014-03-15T08:44:33Z</time>
      </trkpt>
      <trkpt lat="44.32332" lon="2.62677">
        <ele>647.1044922</ele>
        <time>2014-03-15T08:44:36Z</time>
      </trkpt>
      <trkpt lat="44.32327" lon="2.62686">
        <ele>647.1044922</ele>
        <time>2014-03-15T08:44:39Z</time>
      </trkpt>
      <trkpt lat="44.32318" lon="2.62694">
        <ele>647.5852051</ele>
        <time>2014-03-15T08:44:43Z</time>
      </trkpt>
      <trkpt lat="44.32309" lon="2.62685">
        <ele>647.1044922</ele>
        <time>2014-03-15T08:44:47Z</time>
      </trkpt>
      <trkpt lat="44.32306" lon="2.62671">
        <ele>645.6625977</ele>
        <time>2014-03-15T08:44:50Z</time>
      </trkpt>
      <trkpt lat="44.32297" lon="2.62643">
        <ele>642.7788086</ele>
        <time>2014-03-15T08:44:56Z</time>
      </trkpt>
      <trkpt lat="44.32278" lon="2.62625">
        <ele>641.3366699</ele>
        <time>2014-03-15T08:45:01Z</time>
      </trkpt>
      <trkpt lat="44.32249" lon="2.62595">
        <ele>638.9335938</ele>
        <time>2014-03-15T08:45:08Z</time>
      </trkpt>
      <trkpt lat="44.32232" lon="2.62592">
        <ele>637.4914551</ele>
        <time>2014-03-15T08:45:12Z</time>
      </trkpt>
      <trkpt lat="44.32225" lon="2.62596">
        <ele>637.0107422</ele>
        <time>2014-03-15T08:45:15Z</time>
      </trkpt>
      <trkpt lat="44.32215" lon="2.62601">
        <ele>635.5686035</ele>
        <time>2014-03-15T08:45:19Z</time>
      </trkpt>
      <trkpt lat="44.32203" lon="2.62611">
        <ele>635.5686035</ele>
        <time>2014-03-15T08:45:24Z</time>
      </trkpt>
      <trkpt lat="44.32204" lon="2.62627">
        <ele>636.0495605</ele>
        <time>2014-03-15T08:45:28Z</time>
      </trkpt>
      <trkpt lat="44.32204" lon="2.62645">
        <ele>636.5302734</ele>
        <time>2014-03-15T08:45:32Z</time>
      </trkpt>
      <trkpt lat="44.32205" lon="2.62659">
        <ele>635.5686035</ele>
        <time>2014-03-15T08:45:36Z</time>
      </trkpt>
      <trkpt lat="44.32212" lon="2.62675">
        <ele>635.0881348</ele>
        <time>2014-03-15T08:45:42Z</time>
      </trkpt>
      <trkpt lat="44.32213" lon="2.62684">
        <ele>635.0881348</ele>
        <time>2014-03-15T08:45:45Z</time>
      </trkpt>
      <trkpt lat="44.32205" lon="2.62693">
        <ele>632.6848145</ele>
        <time>2014-03-15T08:45:50Z</time>
      </trkpt>
      <trkpt lat="44.32201" lon="2.62701">
        <ele>632.2041016</ele>
        <time>2014-03-15T08:45:52Z</time>
      </trkpt>
      <trkpt lat="44.3219" lon="2.62714">
        <ele>633.1652832</ele>
        <time>2014-03-15T08:45:58Z</time>
      </trkpt>
      <trkpt lat="44.32183" lon="2.62734">
        <ele>636.0495605</ele>
        <time>2014-03-15T08:46:04Z</time>
      </trkpt>
      <trkpt lat="44.32181" lon="2.6275">
        <ele>638.9335938</ele>
        <time>2014-03-15T08:46:10Z</time>
      </trkpt>
      <trkpt lat="44.32178" lon="2.6277">
        <ele>640.3754883</ele>
        <time>2014-03-15T08:46:17Z</time>
      </trkpt>
      <trkpt lat="44.32175" lon="2.62791">
        <ele>642.2980957</ele>
        <time>2014-03-15T08:46:24Z</time>
      </trkpt>
      <trkpt lat="44.32171" lon="2.62815">
        <ele>645.1818848</ele>
        <time>2014-03-15T08:46:32Z</time>
      </trkpt>
      <trkpt lat="44.32166" lon="2.62836">
        <ele>647.1044922</ele>
        <time>2014-03-15T08:46:40Z</time>
      </trkpt>
      <trkpt lat="44.3216" lon="2.62854">
        <ele>647.5852051</ele>
        <time>2014-03-15T08:46:48Z</time>
      </trkpt>
      <trkpt lat="44.32155" lon="2.62865">
        <ele>647.1044922</ele>
        <time>2014-03-15T08:46:54Z</time>
      </trkpt>
      <trkpt lat="44.32148" lon="2.6288">
        <ele>647.5852051</ele>
        <time>2014-03-15T08:47:01Z</time>
      </trkpt>
      <trkpt lat="44.32141" lon="2.62892">
        <ele>647.5852051</ele>
        <time>2014-03-15T08:47:07Z</time>
      </trkpt>
      <trkpt lat="44.3213" lon="2.62905">
        <ele>650.949707</ele>
        <time>2014-03-15T08:47:15Z</time>
      </trkpt>
      <trkpt lat="44.32129" lon="2.62907">
        <ele>651.9111328</ele>
        <time>2014-03-15T08:47:21Z</time>
      </trkpt>
      <trkpt lat="44.32126" lon="2.62907">
        <ele>654.795166</ele>
        <time>2014-03-15T08:47:39Z</time>
      </trkpt>
      <trkpt lat="44.32124" lon="2.62909">
        <ele>656.2370605</ele>
        <time>2014-03-15T08:47:48Z</time>
      </trkpt>
      <trkpt lat="44.32119" lon="2.62914">
        <ele>657.1984863</ele>
        <time>2014-03-15T08:47:52Z</time>
      </trkpt>
      <trkpt lat="44.32112" lon="2.62924">
        <ele>657.6791992</ele>
        <time>2014-03-15T08:47:59Z</time>
      </trkpt>
      <trkpt lat="44.32103" lon="2.62935">
        <ele>657.1984863</ele>
        <time>2014-03-15T08:48:06Z</time>
      </trkpt>
      <trkpt lat="44.32091" lon="2.62941">
        <ele>656.7177734</ele>
        <time>2014-03-15T08:48:13Z</time>
      </trkpt>
      <trkpt lat="44.32082" lon="2.6295">
        <ele>655.7565918</ele>
        <time>2014-03-15T08:48:19Z</time>
      </trkpt>
      <trkpt lat="44.32075" lon="2.62961">
        <ele>656.2370605</ele>
        <time>2014-03-15T08:48:25Z</time>
      </trkpt>
      <trkpt lat="44.32066" lon="2.62971">
        <ele>657.6791992</ele>
        <time>2014-03-15T08:48:31Z</time>
      </trkpt>
      <trkpt lat="44.32053" lon="2.62982">
        <ele>661.0437012</ele>
        <time>2014-03-15T08:48:39Z</time>
      </trkpt>
      <trkpt lat="44.32045" lon="2.62989">
        <ele>662.4855957</ele>
        <time>2014-03-15T08:48:43Z</time>
      </trkpt>
      <trkpt lat="44.32037" lon="2.62998">
        <ele>662.005127</ele>
        <time>2014-03-15T08:48:49Z</time>
      </trkpt>
      <trkpt lat="44.3203" lon="2.63008">
        <ele>662.4855957</ele>
        <time>2014-03-15T08:48:54Z</time>
      </trkpt>
      <trkpt lat="44.32021" lon="2.63016">
        <ele>662.4855957</ele>
        <time>2014-03-15T08:49:00Z</time>
      </trkpt>
      <trkpt lat="44.32016" lon="2.63024">
        <ele>662.9663086</ele>
        <time>2014-03-15T08:49:04Z</time>
      </trkpt>
      <trkpt lat="44.32003" lon="2.63041">
        <ele>663.4470215</ele>
        <time>2014-03-15T08:49:12Z</time>
      </trkpt>
      <trkpt lat="44.31993" lon="2.63051">
        <ele>664.4082031</ele>
        <time>2014-03-15T08:49:19Z</time>
      </trkpt>
      <trkpt lat="44.31985" lon="2.63062">
        <ele>664.4082031</ele>
        <time>2014-03-15T08:49:25Z</time>
      </trkpt>
      <trkpt lat="44.31973" lon="2.63073">
        <ele>665.8503418</ele>
        <time>2014-03-15T08:49:32Z</time>
      </trkpt>
      <trkpt lat="44.31964" lon="2.63082">
        <ele>665.8503418</ele>
        <time>2014-03-15T08:49:39Z</time>
      </trkpt>
      <trkpt lat="44.3195" lon="2.63097">
        <ele>666.8115234</ele>
        <time>2014-03-15T08:49:48Z</time>
      </trkpt>
      <trkpt lat="44.31942" lon="2.63106">
        <ele>667.7727051</ele>
        <time>2014-03-15T08:49:54Z</time>
      </trkpt>
      <trkpt lat="44.31931" lon="2.63121">
        <ele>670.6569824</ele>
        <time>2014-03-15T08:50:01Z</time>
      </trkpt>
      <trkpt lat="44.31922" lon="2.63136">
        <ele>670.1762695</ele>
        <time>2014-03-15T08:50:08Z</time>
      </trkpt>
      <trkpt lat="44.31912" lon="2.63153">
        <ele>669.6958008</ele>
        <time>2014-03-15T08:50:15Z</time>
      </trkpt>
      <trkpt lat="44.31898" lon="2.63169">
        <ele>669.2150879</ele>
        <time>2014-03-15T08:50:22Z</time>
      </trkpt>
      <trkpt lat="44.31896" lon="2.63172">
        <ele>669.2150879</ele>
        <time>2014-03-15T08:50:23Z</time>
      </trkpt>
      <trkpt lat="44.31882" lon="2.63193">
        <ele>668.734375</ele>
        <time>2014-03-15T08:50:31Z</time>
      </trkpt>
      <trkpt lat="44.31871" lon="2.63213">
        <ele>669.2150879</ele>
        <time>2014-03-15T08:50:38Z</time>
      </trkpt>
      <trkpt lat="44.31856" lon="2.6324">
        <ele>667.7727051</ele>
        <time>2014-03-15T08:50:45Z</time>
      </trkpt>
      <trkpt lat="44.31847" lon="2.63257">
        <ele>667.2922363</ele>
        <time>2014-03-15T08:50:49Z</time>
      </trkpt>
      <trkpt lat="44.31827" lon="2.63276">
        <ele>666.3308105</ele>
        <time>2014-03-15T08:50:55Z</time>
      </trkpt>
      <trkpt lat="44.31805" lon="2.63285">
        <ele>663.9274902</ele>
        <time>2014-03-15T08:51:01Z</time>
      </trkpt>
      <trkpt lat="44.31788" lon="2.63282">
        <ele>662.4855957</ele>
        <time>2014-03-15T08:51:05Z</time>
      </trkpt>
      <trkpt lat="44.3177" lon="2.63278">
        <ele>661.5244141</ele>
        <time>2014-03-15T08:51:09Z</time>
      </trkpt>
      <trkpt lat="44.31743" lon="2.63275">
        <ele>659.6018066</ele>
        <time>2014-03-15T08:51:15Z</time>
      </trkpt>
      <trkpt lat="44.31726" lon="2.63273">
        <ele>657.1984863</ele>
        <time>2014-03-15T08:51:19Z</time>
      </trkpt>
      <trkpt lat="44.31704" lon="2.63272">
        <ele>654.3146973</ele>
        <time>2014-03-15T08:51:23Z</time>
      </trkpt>
      <trkpt lat="44.31674" lon="2.63273">
        <ele>651.4304199</ele>
        <time>2014-03-15T08:51:29Z</time>
      </trkpt>
      <trkpt lat="44.31662" lon="2.63274">
        <ele>649.5078125</ele>
        <time>2014-03-15T08:51:32Z</time>
      </trkpt>
      <trkpt lat="44.3165" lon="2.63271">
        <ele>649.0270996</ele>
        <time>2014-03-15T08:51:35Z</time>
      </trkpt>
      <trkpt lat="44.31637" lon="2.63264">
        <ele>648.5463867</ele>
        <time>2014-03-15T08:51:40Z</time>
      </trkpt>
      <trkpt lat="44.31627" lon="2.63256">
        <ele>647.1044922</ele>
        <time>2014-03-15T08:51:44Z</time>
      </trkpt>
      <trkpt lat="44.31608" lon="2.63243">
        <ele>645.1818848</ele>
        <time>2014-03-15T08:51:50Z</time>
      </trkpt>
      <trkpt lat="44.3158" lon="2.63231">
        <ele>643.7399902</ele>
        <time>2014-03-15T08:51:57Z</time>
      </trkpt>
      <trkpt lat="44.3155" lon="2.63216">
        <ele>642.7788086</ele>
        <time>2014-03-15T08:52:04Z</time>
      </trkpt>
      <trkpt lat="44.31529" lon="2.63202">
        <ele>641.3366699</ele>
        <time>2014-03-15T08:52:09Z</time>
      </trkpt>
      <trkpt lat="44.31524" lon="2.632">
        <ele>640.3754883</ele>
        <time>2014-03-15T08:52:10Z</time>
      </trkpt>
      <trkpt lat="44.31506" lon="2.63193">
        <ele>637.4914551</ele>
        <time>2014-03-15T08:52:15Z</time>
      </trkpt>
      <trkpt lat="44.31503" lon="2.63193">
        <ele>637.0107422</ele>
        <time>2014-03-15T08:52:16Z</time>
      </trkpt>
      <trkpt lat="44.31491" lon="2.63186">
        <ele>634.6074219</ele>
        <time>2014-03-15T08:52:21Z</time>
      </trkpt>
      <trkpt lat="44.31486" lon="2.63197">
        <ele>631.7233887</ele>
        <time>2014-03-15T08:52:25Z</time>
      </trkpt>
      <trkpt lat="44.31477" lon="2.6322">
        <ele>629.8007813</ele>
        <time>2014-03-15T08:52:29Z</time>
      </trkpt>
      <trkpt lat="44.31465" lon="2.63241">
        <ele>628.8395996</ele>
        <time>2014-03-15T08:52:34Z</time>
      </trkpt>
      <trkpt lat="44.31451" lon="2.63245">
        <ele>629.8007813</ele>
        <time>2014-03-15T08:52:39Z</time>
      </trkpt>
      <trkpt lat="44.31445" lon="2.63242">
        <ele>630.2814941</ele>
        <time>2014-03-15T08:52:41Z</time>
      </trkpt>
      <trkpt lat="44.31428" lon="2.63227">
        <ele>633.6459961</ele>
        <time>2014-03-15T08:52:49Z</time>
      </trkpt>
      <trkpt lat="44.31411" lon="2.63214">
        <ele>637.0107422</ele>
        <time>2014-03-15T08:52:56Z</time>
      </trkpt>
      <trkpt lat="44.31396" lon="2.63207">
        <ele>639.8947754</ele>
        <time>2014-03-15T08:53:02Z</time>
      </trkpt>
      <trkpt lat="44.31382" lon="2.63207">
        <ele>641.3366699</ele>
        <time>2014-03-15T08:53:07Z</time>
      </trkpt>
      <trkpt lat="44.31375" lon="2.63218">
        <ele>641.8173828</ele>
        <time>2014-03-15T08:53:11Z</time>
      </trkpt>
      <trkpt lat="44.31371" lon="2.6324">
        <ele>643.7399902</ele>
        <time>2014-03-15T08:53:17Z</time>
      </trkpt>
      <trkpt lat="44.31369" lon="2.63253">
        <ele>644.7011719</ele>
        <time>2014-03-15T08:53:22Z</time>
      </trkpt>
      <trkpt lat="44.31363" lon="2.63263">
        <ele>644.7011719</ele>
        <time>2014-03-15T08:53:28Z</time>
      </trkpt>
      <trkpt lat="44.31355" lon="2.63278">
        <ele>645.1818848</ele>
        <time>2014-03-15T08:53:36Z</time>
      </trkpt>
      <trkpt lat="44.31347" lon="2.6329">
        <ele>645.1818848</ele>
        <time>2014-03-15T08:53:43Z</time>
      </trkpt>
      <trkpt lat="44.31345" lon="2.63303">
        <ele>646.1433105</ele>
        <time>2014-03-15T08:53:50Z</time>
      </trkpt>
      <trkpt lat="44.31344" lon="2.63309">
        <ele>647.1044922</ele>
        <time>2014-03-15T08:53:53Z</time>
      </trkpt>
      <trkpt lat="44.31344" lon="2.63333">
        <ele>649.0270996</ele>
        <time>2014-03-15T08:54:03Z</time>
      </trkpt>
      <trkpt lat="44.31345" lon="2.63349">
        <ele>649.9885254</ele>
        <time>2014-03-15T08:54:10Z</time>
      </trkpt>
      <trkpt lat="44.31345" lon="2.63364">
        <ele>650.949707</ele>
        <time>2014-03-15T08:54:16Z</time>
      </trkpt>
      <trkpt lat="44.31346" lon="2.63379">
        <ele>649.9885254</ele>
        <time>2014-03-15T08:54:22Z</time>
      </trkpt>
      <trkpt lat="44.31348" lon="2.63393">
        <ele>649.5078125</ele>
        <time>2014-03-15T08:54:28Z</time>
      </trkpt>
      <trkpt lat="44.31351" lon="2.63407">
        <ele>650.4692383</ele>
        <time>2014-03-15T08:54:35Z</time>
      </trkpt>
      <trkpt lat="44.31356" lon="2.63418">
        <ele>651.4304199</ele>
        <time>2014-03-15T08:54:41Z</time>
      </trkpt>
      <trkpt lat="44.31365" lon="2.63429">
        <ele>652.3918457</ele>
        <time>2014-03-15T08:54:48Z</time>
      </trkpt>
      <trkpt lat="44.31372" lon="2.63438">
        <ele>652.3918457</ele>
        <time>2014-03-15T08:54:52Z</time>
      </trkpt>
      <trkpt lat="44.31385" lon="2.63458">
        <ele>652.8725586</ele>
        <time>2014-03-15T08:55:00Z</time>
      </trkpt>
      <trkpt lat="44.31392" lon="2.63471">
        <ele>652.3918457</ele>
        <time>2014-03-15T08:55:05Z</time>
      </trkpt>
      <trkpt lat="44.31396" lon="2.63486">
        <ele>651.9111328</ele>
        <time>2014-03-15T08:55:10Z</time>
      </trkpt>
      <trkpt lat="44.31399" lon="2.63507">
        <ele>651.4304199</ele>
        <time>2014-03-15T08:55:16Z</time>
      </trkpt>
      <trkpt lat="44.31399" lon="2.63534">
        <ele>649.5078125</ele>
        <time>2014-03-15T08:55:23Z</time>
      </trkpt>
      <trkpt lat="44.31402" lon="2.63564">
        <ele>646.6240234</ele>
        <time>2014-03-15T08:55:28Z</time>
      </trkpt>
      <trkpt lat="44.31405" lon="2.63594">
        <ele>642.7788086</ele>
        <time>2014-03-15T08:55:34Z</time>
      </trkpt>
      <trkpt lat="44.31402" lon="2.63616">
        <ele>642.2980957</ele>
        <time>2014-03-15T08:55:39Z</time>
      </trkpt>
      <trkpt lat="44.31401" lon="2.63619">
        <ele>641.8173828</ele>
        <time>2014-03-15T08:55:40Z</time>
      </trkpt>
      <trkpt lat="44.31405" lon="2.63645">
        <ele>638.4528809</ele>
        <time>2014-03-15T08:55:46Z</time>
      </trkpt>
      <trkpt lat="44.31422" lon="2.63669">
        <ele>635.0881348</ele>
        <time>2014-03-15T08:55:53Z</time>
      </trkpt>
      <trkpt lat="44.31421" lon="2.63689">
        <ele>631.2429199</ele>
        <time>2014-03-15T08:55:58Z</time>
      </trkpt>
      <trkpt lat="44.31415" lon="2.63707">
        <ele>629.8007813</ele>
        <time>2014-03-15T08:56:02Z</time>
      </trkpt>
      <trkpt lat="44.31406" lon="2.63728">
        <ele>629.3200684</ele>
        <time>2014-03-15T08:56:06Z</time>
      </trkpt>
      <trkpt lat="44.31396" lon="2.63762">
        <ele>627.8781738</ele>
        <time>2014-03-15T08:56:11Z</time>
      </trkpt>
      <trkpt lat="44.31393" lon="2.63807">
        <ele>624.9943848</ele>
        <time>2014-03-15T08:56:17Z</time>
      </trkpt>
      <trkpt lat="44.31396" lon="2.63824">
        <ele>622.5910645</ele>
        <time>2014-03-15T08:56:20Z</time>
      </trkpt>
      <trkpt lat="44.31407" lon="2.63849">
        <ele>619.7070313</ele>
        <time>2014-03-15T08:56:25Z</time>
      </trkpt>
      <trkpt lat="44.31411" lon="2.63865">
        <ele>618.2648926</ele>
        <time>2014-03-15T08:56:29Z</time>
      </trkpt>
      <trkpt lat="44.31427" lon="2.63907">
        <ele>619.2263184</ele>
        <time>2014-03-15T08:56:37Z</time>
      </trkpt>
      <trkpt lat="44.31434" lon="2.63924">
        <ele>618.7456055</ele>
        <time>2014-03-15T08:56:41Z</time>
      </trkpt>
      <trkpt lat="44.31437" lon="2.63929">
        <ele>614.9003906</ele>
        <time>2014-03-15T08:56:44Z</time>
      </trkpt>
      <trkpt lat="44.31446" lon="2.63948">
        <ele>612.9777832</ele>
        <time>2014-03-15T08:56:49Z</time>
      </trkpt>
      <trkpt lat="44.31462" lon="2.63974">
        <ele>612.9777832</ele>
        <time>2014-03-15T08:56:54Z</time>
      </trkpt>
      <trkpt lat="44.31476" lon="2.63995">
        <ele>617.7841797</ele>
        <time>2014-03-15T08:56:59Z</time>
      </trkpt>
      <trkpt lat="44.31491" lon="2.64007">
        <ele>619.7070313</ele>
        <time>2014-03-15T08:57:03Z</time>
      </trkpt>
      <trkpt lat="44.31508" lon="2.64026">
        <ele>621.6296387</ele>
        <time>2014-03-15T08:57:10Z</time>
      </trkpt>
      <trkpt lat="44.31519" lon="2.64051">
        <ele>623.0717773</ele>
        <time>2014-03-15T08:57:17Z</time>
      </trkpt>
      <trkpt lat="44.31523" lon="2.64069">
        <ele>623.5524902</ele>
        <time>2014-03-15T08:57:22Z</time>
      </trkpt>
      <trkpt lat="44.31525" lon="2.64089">
        <ele>624.032959</ele>
        <time>2014-03-15T08:57:26Z</time>
      </trkpt>
      <trkpt lat="44.31527" lon="2.64107">
        <ele>623.0717773</ele>
        <time>2014-03-15T08:57:31Z</time>
      </trkpt>
      <trkpt lat="44.3153" lon="2.64131">
        <ele>623.5524902</ele>
        <time>2014-03-15T08:57:37Z</time>
      </trkpt>
      <trkpt lat="44.31538" lon="2.64147">
        <ele>624.9943848</ele>
        <time>2014-03-15T08:57:42Z</time>
      </trkpt>
      <trkpt lat="44.31547" lon="2.64162">
        <ele>625.9555664</ele>
        <time>2014-03-15T08:57:48Z</time>
      </trkpt>
      <trkpt lat="44.31562" lon="2.64186">
        <ele>628.3588867</ele>
        <time>2014-03-15T08:57:57Z</time>
      </trkpt>
      <trkpt lat="44.31573" lon="2.64202">
        <ele>628.8395996</ele>
        <time>2014-03-15T08:58:03Z</time>
      </trkpt>
      <trkpt lat="44.31591" lon="2.64229">
        <ele>628.3588867</ele>
        <time>2014-03-15T08:58:12Z</time>
      </trkpt>
      <trkpt lat="44.31596" lon="2.64248">
        <ele>629.3200684</ele>
        <time>2014-03-15T08:58:18Z</time>
      </trkpt>
      <trkpt lat="44.316" lon="2.64266">
        <ele>630.2814941</ele>
        <time>2014-03-15T08:58:24Z</time>
      </trkpt>
      <trkpt lat="44.31606" lon="2.64286">
        <ele>631.7233887</ele>
        <time>2014-03-15T08:58:31Z</time>
      </trkpt>
      <trkpt lat="44.31613" lon="2.6431">
        <ele>630.762207</ele>
        <time>2014-03-15T08:58:39Z</time>
      </trkpt>
      <trkpt lat="44.31624" lon="2.64328">
        <ele>630.762207</ele>
        <time>2014-03-15T08:58:45Z</time>
      </trkpt>
      <trkpt lat="44.31629" lon="2.64344">
        <ele>630.762207</ele>
        <time>2014-03-15T08:58:50Z</time>
      </trkpt>
      <trkpt lat="44.31624" lon="2.6436">
        <ele>631.2429199</ele>
        <time>2014-03-15T08:58:55Z</time>
      </trkpt>
      <trkpt lat="44.31617" lon="2.64377">
        <ele>632.6848145</ele>
        <time>2014-03-15T08:59:02Z</time>
      </trkpt>
      <trkpt lat="44.31615" lon="2.64396">
        <ele>634.126709</ele>
        <time>2014-03-15T08:59:09Z</time>
      </trkpt>
      <trkpt lat="44.31613" lon="2.64409">
        <ele>635.0881348</ele>
        <time>2014-03-15T08:59:14Z</time>
      </trkpt>
      <trkpt lat="44.31606" lon="2.64431">
        <ele>634.6074219</ele>
        <time>2014-03-15T08:59:22Z</time>
      </trkpt>
      <trkpt lat="44.31604" lon="2.64455">
        <ele>635.5686035</ele>
        <time>2014-03-15T08:59:29Z</time>
      </trkpt>
      <trkpt lat="44.31606" lon="2.64489">
        <ele>636.0495605</ele>
        <time>2014-03-15T08:59:38Z</time>
      </trkpt>
      <trkpt lat="44.31606" lon="2.64517">
        <ele>636.0495605</ele>
        <time>2014-03-15T08:59:46Z</time>
      </trkpt>
      <trkpt lat="44.31606" lon="2.64533">
        <ele>636.0495605</ele>
        <time>2014-03-15T08:59:52Z</time>
      </trkpt>
      <trkpt lat="44.31596" lon="2.64548">
        <ele>636.0495605</ele>
        <time>2014-03-15T08:59:57Z</time>
      </trkpt>
      <trkpt lat="44.3158" lon="2.64567">
        <ele>636.0495605</ele>
        <time>2014-03-15T09:00:04Z</time>
      </trkpt>
      <trkpt lat="44.31569" lon="2.64582">
        <ele>636.5302734</ele>
        <time>2014-03-15T09:00:10Z</time>
      </trkpt>
      <trkpt lat="44.3157" lon="2.646">
        <ele>637.972168</ele>
        <time>2014-03-15T09:00:15Z</time>
      </trkpt>
      <trkpt lat="44.31571" lon="2.64616">
        <ele>639.8947754</ele>
        <time>2014-03-15T09:00:22Z</time>
      </trkpt>
      <trkpt lat="44.31569" lon="2.64636">
        <ele>641.3366699</ele>
        <time>2014-03-15T09:00:29Z</time>
      </trkpt>
      <trkpt lat="44.31563" lon="2.64658">
        <ele>643.2592773</ele>
        <time>2014-03-15T09:00:37Z</time>
      </trkpt>
      <trkpt lat="44.31552" lon="2.64677">
        <ele>644.7011719</ele>
        <time>2014-03-15T09:00:45Z</time>
      </trkpt>
      <trkpt lat="44.31542" lon="2.64698">
        <ele>647.1044922</ele>
        <time>2014-03-15T09:00:53Z</time>
      </trkpt>
      <trkpt lat="44.31542" lon="2.64715">
        <ele>648.5463867</ele>
        <time>2014-03-15T09:00:59Z</time>
      </trkpt>
      <trkpt lat="44.31549" lon="2.64725">
        <ele>649.9885254</ele>
        <time>2014-03-15T09:01:05Z</time>
      </trkpt>
      <trkpt lat="44.31558" lon="2.6473">
        <ele>651.9111328</ele>
        <time>2014-03-15T09:01:11Z</time>
      </trkpt>
      <trkpt lat="44.31563" lon="2.6474">
        <ele>653.3532715</ele>
        <time>2014-03-15T09:01:16Z</time>
      </trkpt>
      <trkpt lat="44.3156" lon="2.64754">
        <ele>654.3146973</ele>
        <time>2014-03-15T09:01:22Z</time>
      </trkpt>
      <trkpt lat="44.31562" lon="2.64767">
        <ele>656.7177734</ele>
        <time>2014-03-15T09:01:28Z</time>
      </trkpt>
      <trkpt lat="44.31564" lon="2.64787">
        <ele>658.6403809</ele>
        <time>2014-03-15T09:01:37Z</time>
      </trkpt>
      <trkpt lat="44.31566" lon="2.64801">
        <ele>659.6018066</ele>
        <time>2014-03-15T09:01:44Z</time>
      </trkpt>
      <trkpt lat="44.31567" lon="2.64817">
        <ele>661.0437012</ele>
        <time>2014-03-15T09:01:52Z</time>
      </trkpt>
      <trkpt lat="44.31567" lon="2.6483">
        <ele>661.5244141</ele>
        <time>2014-03-15T09:01:59Z</time>
      </trkpt>
      <trkpt lat="44.31567" lon="2.64849">
        <ele>662.9663086</ele>
        <time>2014-03-15T09:02:08Z</time>
      </trkpt>
      <trkpt lat="44.31568" lon="2.64863">
        <ele>664.4082031</ele>
        <time>2014-03-15T09:02:15Z</time>
      </trkpt>
      <trkpt lat="44.31569" lon="2.64876">
        <ele>665.8503418</ele>
        <time>2014-03-15T09:02:21Z</time>
      </trkpt>
      <trkpt lat="44.31571" lon="2.64881">
        <ele>666.8115234</ele>
        <time>2014-03-15T09:02:24Z</time>
      </trkpt>
      <trkpt lat="44.31575" lon="2.64897">
        <ele>668.2536621</ele>
        <time>2014-03-15T09:02:32Z</time>
      </trkpt>
      <trkpt lat="44.31575" lon="2.64899">
        <ele>668.2536621</ele>
        <time>2014-03-15T09:02:33Z</time>
      </trkpt>
      <trkpt lat="44.31576" lon="2.64916">
        <ele>670.1762695</ele>
        <time>2014-03-15T09:02:42Z</time>
      </trkpt>
      <trkpt lat="44.31575" lon="2.6493">
        <ele>671.6181641</ele>
        <time>2014-03-15T09:02:49Z</time>
      </trkpt>
      <trkpt lat="44.31574" lon="2.64945">
        <ele>673.0603027</ele>
        <time>2014-03-15T09:02:56Z</time>
      </trkpt>
      <trkpt lat="44.31575" lon="2.64957">
        <ele>674.0214844</ele>
        <time>2014-03-15T09:03:02Z</time>
      </trkpt>
      <trkpt lat="44.31577" lon="2.64969">
        <ele>674.9829102</ele>
        <time>2014-03-15T09:03:08Z</time>
      </trkpt>
      <trkpt lat="44.31577" lon="2.64982">
        <ele>676.4248047</ele>
        <time>2014-03-15T09:03:14Z</time>
      </trkpt>
      <trkpt lat="44.31574" lon="2.64994">
        <ele>676.9055176</ele>
        <time>2014-03-15T09:03:21Z</time>
      </trkpt>
      <trkpt lat="44.3157" lon="2.65003">
        <ele>676.9055176</ele>
        <time>2014-03-15T09:03:27Z</time>
      </trkpt>
      <trkpt lat="44.31564" lon="2.65014">
        <ele>676.9055176</ele>
        <time>2014-03-15T09:03:34Z</time>
      </trkpt>
      <trkpt lat="44.31556" lon="2.65025">
        <ele>677.3862305</ele>
        <time>2014-03-15T09:03:40Z</time>
      </trkpt>
      <trkpt lat="44.31545" lon="2.65033">
        <ele>677.8666992</ele>
        <time>2014-03-15T09:03:47Z</time>
      </trkpt>
      <trkpt lat="44.31532" lon="2.65041">
        <ele>678.828125</ele>
        <time>2014-03-15T09:03:54Z</time>
      </trkpt>
      <trkpt lat="44.31512" lon="2.6505">
        <ele>681.2314453</ele>
        <time>2014-03-15T09:04:03Z</time>
      </trkpt>
      <trkpt lat="44.31496" lon="2.65056">
        <ele>683.1538086</ele>
        <time>2014-03-15T09:04:10Z</time>
      </trkpt>
      <trkpt lat="44.31478" lon="2.6506">
        <ele>685.0769043</ele>
        <time>2014-03-15T09:04:18Z</time>
      </trkpt>
      <trkpt lat="44.31466" lon="2.65066">
        <ele>686.0380859</ele>
        <time>2014-03-15T09:04:25Z</time>
      </trkpt>
      <trkpt lat="44.31459" lon="2.65073">
        <ele>686.9992676</ele>
        <time>2014-03-15T09:04:32Z</time>
      </trkpt>
      <trkpt lat="44.31448" lon="2.65076">
        <ele>688.4414063</ele>
        <time>2014-03-15T09:04:39Z</time>
      </trkpt>
      <trkpt lat="44.31439" lon="2.6508">
        <ele>689.8833008</ele>
        <time>2014-03-15T09:04:45Z</time>
      </trkpt>
      <trkpt lat="44.31433" lon="2.65084">
        <ele>689.8833008</ele>
        <time>2014-03-15T09:04:51Z</time>
      </trkpt>
      <trkpt lat="44.3143" lon="2.65085">
        <ele>690.8444824</ele>
        <time>2014-03-15T09:05:03Z</time>
      </trkpt>
      <trkpt lat="44.31426" lon="2.65086">
        <ele>690.3640137</ele>
        <time>2014-03-15T09:05:07Z</time>
      </trkpt>
      <trkpt lat="44.31419" lon="2.65093">
        <ele>690.3640137</ele>
        <time>2014-03-15T09:05:12Z</time>
      </trkpt>
      <trkpt lat="44.31409" lon="2.65105">
        <ele>689.8833008</ele>
        <time>2014-03-15T09:05:19Z</time>
      </trkpt>
      <trkpt lat="44.31395" lon="2.65121">
        <ele>687.9606934</ele>
        <time>2014-03-15T09:05:25Z</time>
      </trkpt>
      <trkpt lat="44.31381" lon="2.65139">
        <ele>686.5187988</ele>
        <time>2014-03-15T09:05:32Z</time>
      </trkpt>
      <trkpt lat="44.3137" lon="2.65155">
        <ele>686.0380859</ele>
        <time>2014-03-15T09:05:38Z</time>
      </trkpt>
      <trkpt lat="44.31357" lon="2.65173">
        <ele>685.557373</ele>
        <time>2014-03-15T09:05:45Z</time>
      </trkpt>
      <trkpt lat="44.31338" lon="2.65196">
        <ele>685.557373</ele>
        <time>2014-03-15T09:05:54Z</time>
      </trkpt>
      <trkpt lat="44.31315" lon="2.6522">
        <ele>686.0380859</ele>
        <time>2014-03-15T09:06:04Z</time>
      </trkpt>
      <trkpt lat="44.31297" lon="2.65238">
        <ele>685.557373</ele>
        <time>2014-03-15T09:06:13Z</time>
      </trkpt>
      <trkpt lat="44.3129" lon="2.65245">
        <ele>685.557373</ele>
        <time>2014-03-15T09:06:19Z</time>
      </trkpt>
      <trkpt lat="44.31289" lon="2.65247">
        <ele>685.0769043</ele>
        <time>2014-03-15T09:06:24Z</time>
      </trkpt>
      <trkpt lat="44.31287" lon="2.65248">
        <ele>688.4414063</ele>
        <time>2014-03-15T09:06:32Z</time>
      </trkpt>
      <trkpt lat="44.31285" lon="2.65251">
        <ele>691.3251953</ele>
        <time>2014-03-15T09:06:55Z</time>
      </trkpt>
      <trkpt lat="44.31286" lon="2.65251">
        <ele>691.3251953</ele>
        <time>2014-03-15T09:07:12Z</time>
      </trkpt>
      <trkpt lat="44.31286" lon="2.65253">
        <ele>694.2092285</ele>
        <time>2014-03-15T09:07:40Z</time>
      </trkpt>
      <trkpt lat="44.31286" lon="2.65254">
        <ele>695.1704102</ele>
        <time>2014-03-15T09:07:48Z</time>
      </trkpt>
      <trkpt lat="44.31287" lon="2.65254">
        <ele>694.6896973</ele>
        <time>2014-03-15T09:07:55Z</time>
      </trkpt>
      <trkpt lat="44.31287" lon="2.65253">
        <ele>693.2478027</ele>
        <time>2014-03-15T09:08:09Z</time>
      </trkpt>
      <trkpt lat="44.31287" lon="2.65254">
        <ele>693.2478027</ele>
        <time>2014-03-15T09:08:18Z</time>
      </trkpt>
      <trkpt lat="44.31287" lon="2.65254">
        <ele>692.2866211</ele>
        <time>2014-03-15T09:08:26Z</time>
      </trkpt>
      <trkpt lat="44.31287" lon="2.65254">
        <ele>691.8059082</ele>
        <time>2014-03-15T09:08:33Z</time>
      </trkpt>
      <trkpt lat="44.31287" lon="2.65253">
        <ele>691.3251953</ele>
        <time>2014-03-15T09:08:44Z</time>
      </trkpt>
      <trkpt lat="44.31286" lon="2.65256">
        <ele>690.8444824</ele>
        <time>2014-03-15T09:08:51Z</time>
      </trkpt>
      <trkpt lat="44.31279" lon="2.65266">
        <ele>689.8833008</ele>
        <time>2014-03-15T09:08:56Z</time>
      </trkpt>
      <trkpt lat="44.31265" lon="2.65281">
        <ele>688.4414063</ele>
        <time>2014-03-15T09:09:03Z</time>
      </trkpt>
      <trkpt lat="44.31249" lon="2.65298">
        <ele>686.0380859</ele>
        <time>2014-03-15T09:09:08Z</time>
      </trkpt>
      <trkpt lat="44.31219" lon="2.65329">
        <ele>683.1538086</ele>
        <time>2014-03-15T09:09:15Z</time>
      </trkpt>
      <trkpt lat="44.31196" lon="2.65357">
        <ele>679.3085938</ele>
        <time>2014-03-15T09:09:21Z</time>
      </trkpt>
      <trkpt lat="44.3117" lon="2.65372">
        <ele>675.9440918</ele>
        <time>2014-03-15T09:09:27Z</time>
      </trkpt>
      <trkpt lat="44.31147" lon="2.65376">
        <ele>672.098877</ele>
        <time>2014-03-15T09:09:34Z</time>
      </trkpt>
      <trkpt lat="44.3114" lon="2.65375">
        <ele>669.6958008</ele>
        <time>2014-03-15T09:09:39Z</time>
      </trkpt>
      <trkpt lat="44.31137" lon="2.65376">
        <ele>668.734375</ele>
        <time>2014-03-15T09:09:41Z</time>
      </trkpt>
      <trkpt lat="44.31133" lon="2.65374">
        <ele>666.3308105</ele>
        <time>2014-03-15T09:09:45Z</time>
      </trkpt>
      <trkpt lat="44.31127" lon="2.65369">
        <ele>667.2922363</ele>
        <time>2014-03-15T09:09:49Z</time>
      </trkpt>
      <trkpt lat="44.31115" lon="2.65363">
        <ele>662.9663086</ele>
        <time>2014-03-15T09:09:55Z</time>
      </trkpt>
      <trkpt lat="44.31104" lon="2.65362">
        <ele>659.6018066</ele>
        <time>2014-03-15T09:09:59Z</time>
      </trkpt>
      <trkpt lat="44.31087" lon="2.65365">
        <ele>658.6403809</ele>
        <time>2014-03-15T09:10:04Z</time>
      </trkpt>
      <trkpt lat="44.31066" lon="2.65373">
        <ele>662.005127</ele>
        <time>2014-03-15T09:10:11Z</time>
      </trkpt>
      <trkpt lat="44.31049" lon="2.6538">
        <ele>660.5629883</ele>
        <time>2014-03-15T09:10:18Z</time>
      </trkpt>
      <trkpt lat="44.31033" lon="2.6539">
        <ele>658.1599121</ele>
        <time>2014-03-15T09:10:23Z</time>
      </trkpt>
      <trkpt lat="44.31026" lon="2.65394">
        <ele>657.1984863</ele>
        <time>2014-03-15T09:10:26Z</time>
      </trkpt>
      <trkpt lat="44.31013" lon="2.65397">
        <ele>651.9111328</ele>
        <time>2014-03-15T09:10:33Z</time>
      </trkpt>
      <trkpt lat="44.31011" lon="2.65398">
        <ele>648.065918</ele>
        <time>2014-03-15T09:10:38Z</time>
      </trkpt>
      <trkpt lat="44.3101" lon="2.65398">
        <ele>647.5852051</ele>
        <time>2014-03-15T09:10:39Z</time>
      </trkpt>
      <trkpt lat="44.30999" lon="2.65405">
        <ele>642.7788086</ele>
        <time>2014-03-15T09:10:46Z</time>
      </trkpt>
      <trkpt lat="44.30994" lon="2.65408">
        <ele>640.855957</ele>
        <time>2014-03-15T09:10:51Z</time>
      </trkpt>
      <trkpt lat="44.3099" lon="2.6541">
        <ele>638.4528809</ele>
        <time>2014-03-15T09:10:55Z</time>
      </trkpt>
      <trkpt lat="44.30982" lon="2.65415">
        <ele>635.0881348</ele>
        <time>2014-03-15T09:11:01Z</time>
      </trkpt>
      <trkpt lat="44.30973" lon="2.6542">
        <ele>633.1652832</ele>
        <time>2014-03-15T09:11:06Z</time>
      </trkpt>
      <trkpt lat="44.30971" lon="2.65422">
        <ele>632.6848145</ele>
        <time>2014-03-15T09:11:08Z</time>
      </trkpt>
      <trkpt lat="44.30959" lon="2.6543">
        <ele>631.7233887</ele>
        <time>2014-03-15T09:11:14Z</time>
      </trkpt>
      <trkpt lat="44.30944" lon="2.65439">
        <ele>631.7233887</ele>
        <time>2014-03-15T09:11:19Z</time>
      </trkpt>
      <trkpt lat="44.30931" lon="2.65445">
        <ele>633.6459961</ele>
        <time>2014-03-15T09:11:24Z</time>
      </trkpt>
      <trkpt lat="44.30921" lon="2.65447">
        <ele>633.1652832</ele>
        <time>2014-03-15T09:11:29Z</time>
      </trkpt>
      <trkpt lat="44.30915" lon="2.65461">
        <ele>632.2041016</ele>
        <time>2014-03-15T09:11:35Z</time>
      </trkpt>
      <trkpt lat="44.30913" lon="2.65467">
        <ele>631.7233887</ele>
        <time>2014-03-15T09:11:39Z</time>
      </trkpt>
      <trkpt lat="44.30909" lon="2.6548">
        <ele>631.7233887</ele>
        <time>2014-03-15T09:11:46Z</time>
      </trkpt>
      <trkpt lat="44.30902" lon="2.65492">
        <ele>630.762207</ele>
        <time>2014-03-15T09:11:52Z</time>
      </trkpt>
      <trkpt lat="44.30895" lon="2.65498">
        <ele>630.2814941</ele>
        <time>2014-03-15T09:11:57Z</time>
      </trkpt>
      <trkpt lat="44.30882" lon="2.65505">
        <ele>630.2814941</ele>
        <time>2014-03-15T09:12:05Z</time>
      </trkpt>
      <trkpt lat="44.30874" lon="2.65513">
        <ele>630.762207</ele>
        <time>2014-03-15T09:12:12Z</time>
      </trkpt>
      <trkpt lat="44.30878" lon="2.65523">
        <ele>632.2041016</ele>
        <time>2014-03-15T09:12:18Z</time>
      </trkpt>
      <trkpt lat="44.30881" lon="2.65526">
        <ele>632.6848145</ele>
        <time>2014-03-15T09:12:20Z</time>
      </trkpt>
      <trkpt lat="44.3089" lon="2.65533">
        <ele>636.0495605</ele>
        <time>2014-03-15T09:12:28Z</time>
      </trkpt>
      <trkpt lat="44.30891" lon="2.65534">
        <ele>636.5302734</ele>
        <time>2014-03-15T09:12:29Z</time>
      </trkpt>
      <trkpt lat="44.30901" lon="2.65536">
        <ele>638.9335938</ele>
        <time>2014-03-15T09:12:37Z</time>
      </trkpt>
      <trkpt lat="44.30911" lon="2.65536">
        <ele>640.3754883</ele>
        <time>2014-03-15T09:12:45Z</time>
      </trkpt>
      <trkpt lat="44.30918" lon="2.65537">
        <ele>642.2980957</ele>
        <time>2014-03-15T09:12:51Z</time>
      </trkpt>
      <trkpt lat="44.30929" lon="2.65538">
        <ele>643.7399902</ele>
        <time>2014-03-15T09:12:59Z</time>
      </trkpt>
      <trkpt lat="44.30934" lon="2.65538">
        <ele>644.7011719</ele>
        <time>2014-03-15T09:13:03Z</time>
      </trkpt>
      <trkpt lat="44.30942" lon="2.6554">
        <ele>645.1818848</ele>
        <time>2014-03-15T09:13:09Z</time>
      </trkpt>
      <trkpt lat="44.30952" lon="2.65542">
        <ele>646.6240234</ele>
        <time>2014-03-15T09:13:17Z</time>
      </trkpt>
      <trkpt lat="44.3096" lon="2.65543">
        <ele>647.1044922</ele>
        <time>2014-03-15T09:13:23Z</time>
      </trkpt>
      <trkpt lat="44.30966" lon="2.65544">
        <ele>648.065918</ele>
        <time>2014-03-15T09:13:28Z</time>
      </trkpt>
      <trkpt lat="44.30976" lon="2.65546">
        <ele>649.0270996</ele>
        <time>2014-03-15T09:13:35Z</time>
      </trkpt>
      <trkpt lat="44.30984" lon="2.65549">
        <ele>649.5078125</ele>
        <time>2014-03-15T09:13:41Z</time>
      </trkpt>
      <trkpt lat="44.30995" lon="2.65554">
        <ele>650.949707</ele>
        <time>2014-03-15T09:13:49Z</time>
      </trkpt>
      <trkpt lat="44.31004" lon="2.65558">
        <ele>651.9111328</ele>
        <time>2014-03-15T09:13:56Z</time>
      </trkpt>
      <trkpt lat="44.31013" lon="2.65562">
        <ele>655.2758789</ele>
        <time>2014-03-15T09:14:03Z</time>
      </trkpt>
      <trkpt lat="44.31023" lon="2.65566">
        <ele>655.7565918</ele>
        <time>2014-03-15T09:14:10Z</time>
      </trkpt>
      <trkpt lat="44.31028" lon="2.6557">
        <ele>656.7177734</ele>
        <time>2014-03-15T09:14:14Z</time>
      </trkpt>
      <trkpt lat="44.31038" lon="2.65578">
        <ele>657.1984863</ele>
        <time>2014-03-15T09:14:22Z</time>
      </trkpt>
      <trkpt lat="44.31045" lon="2.65587">
        <ele>660.5629883</ele>
        <time>2014-03-15T09:14:29Z</time>
      </trkpt>
      <trkpt lat="44.31054" lon="2.65595">
        <ele>661.0437012</ele>
        <time>2014-03-15T09:14:36Z</time>
      </trkpt>
      <trkpt lat="44.31064" lon="2.65601">
        <ele>660.5629883</ele>
        <time>2014-03-15T09:14:43Z</time>
      </trkpt>
      <trkpt lat="44.31073" lon="2.65609">
        <ele>661.5244141</ele>
        <time>2014-03-15T09:14:50Z</time>
      </trkpt>
      <trkpt lat="44.31083" lon="2.65617">
        <ele>661.5244141</ele>
        <time>2014-03-15T09:14:57Z</time>
      </trkpt>
      <trkpt lat="44.31092" lon="2.65626">
        <ele>662.9663086</ele>
        <time>2014-03-15T09:15:04Z</time>
      </trkpt>
      <trkpt lat="44.31101" lon="2.65637">
        <ele>663.9274902</ele>
        <time>2014-03-15T09:15:11Z</time>
      </trkpt>
      <trkpt lat="44.31109" lon="2.65644">
        <ele>664.4082031</ele>
        <time>2014-03-15T09:15:17Z</time>
      </trkpt>
      <trkpt lat="44.31117" lon="2.65652">
        <ele>665.3696289</ele>
        <time>2014-03-15T09:15:23Z</time>
      </trkpt>
      <trkpt lat="44.31127" lon="2.6566">
        <ele>666.3308105</ele>
        <time>2014-03-15T09:15:30Z</time>
      </trkpt>
      <trkpt lat="44.31137" lon="2.65672">
        <ele>667.2922363</ele>
        <time>2014-03-15T09:15:38Z</time>
      </trkpt>
      <trkpt lat="44.31144" lon="2.65685">
        <ele>668.2536621</ele>
        <time>2014-03-15T09:15:45Z</time>
      </trkpt>
      <trkpt lat="44.31148" lon="2.65698">
        <ele>669.2150879</ele>
        <time>2014-03-15T09:15:52Z</time>
      </trkpt>
      <trkpt lat="44.3115" lon="2.65709">
        <ele>669.2150879</ele>
        <time>2014-03-15T09:15:58Z</time>
      </trkpt>
      <trkpt lat="44.31152" lon="2.6572">
        <ele>670.6569824</ele>
        <time>2014-03-15T09:16:05Z</time>
      </trkpt>
      <trkpt lat="44.31153" lon="2.65726">
        <ele>670.6569824</ele>
        <time>2014-03-15T09:16:08Z</time>
      </trkpt>
      <trkpt lat="44.31157" lon="2.65737">
        <ele>671.1376953</ele>
        <time>2014-03-15T09:16:14Z</time>
      </trkpt>
      <trkpt lat="44.31162" lon="2.65749">
        <ele>672.098877</ele>
        <time>2014-03-15T09:16:21Z</time>
      </trkpt>
      <trkpt lat="44.31168" lon="2.65761">
        <ele>673.5410156</ele>
        <time>2014-03-15T09:16:28Z</time>
      </trkpt>
      <trkpt lat="44.31175" lon="2.65774">
        <ele>674.9829102</ele>
        <time>2014-03-15T09:16:36Z</time>
      </trkpt>
      <trkpt lat="44.31183" lon="2.65788">
        <ele>676.9055176</ele>
        <time>2014-03-15T09:16:44Z</time>
      </trkpt>
      <trkpt lat="44.31188" lon="2.65798">
        <ele>677.3862305</ele>
        <time>2014-03-15T09:16:50Z</time>
      </trkpt>
      <trkpt lat="44.31191" lon="2.65814">
        <ele>677.8666992</ele>
        <time>2014-03-15T09:16:58Z</time>
      </trkpt>
      <trkpt lat="44.3119" lon="2.65825">
        <ele>677.8666992</ele>
        <time>2014-03-15T09:17:04Z</time>
      </trkpt>
      <trkpt lat="44.31189" lon="2.65844">
        <ele>678.3474121</ele>
        <time>2014-03-15T09:17:13Z</time>
      </trkpt>
      <trkpt lat="44.31188" lon="2.65861">
        <ele>679.3085938</ele>
        <time>2014-03-15T09:17:22Z</time>
      </trkpt>
      <trkpt lat="44.31188" lon="2.65876">
        <ele>679.7893066</ele>
        <time>2014-03-15T09:17:29Z</time>
      </trkpt>
      <trkpt lat="44.31189" lon="2.65894">
        <ele>680.7507324</ele>
        <time>2014-03-15T09:17:37Z</time>
      </trkpt>
      <trkpt lat="44.3119" lon="2.65913">
        <ele>682.192627</ele>
        <time>2014-03-15T09:17:45Z</time>
      </trkpt>
      <trkpt lat="44.31189" lon="2.6593">
        <ele>684.1154785</ele>
        <time>2014-03-15T09:17:53Z</time>
      </trkpt>
      <trkpt lat="44.31188" lon="2.65946">
        <ele>684.5961914</ele>
        <time>2014-03-15T09:18:00Z</time>
      </trkpt>
      <trkpt lat="44.31188" lon="2.65957">
        <ele>685.0769043</ele>
        <time>2014-03-15T09:18:05Z</time>
      </trkpt>
      <trkpt lat="44.3119" lon="2.65968">
        <ele>685.557373</ele>
        <time>2014-03-15T09:18:10Z</time>
      </trkpt>
      <trkpt lat="44.31196" lon="2.65983">
        <ele>687.9606934</ele>
        <time>2014-03-15T09:18:18Z</time>
      </trkpt>
      <trkpt lat="44.31207" lon="2.65996">
        <ele>689.4025879</ele>
        <time>2014-03-15T09:18:26Z</time>
      </trkpt>
      <trkpt lat="44.31215" lon="2.66006">
        <ele>690.3640137</ele>
        <time>2014-03-15T09:18:33Z</time>
      </trkpt>
      <trkpt lat="44.3122" lon="2.66016">
        <ele>691.3251953</ele>
        <time>2014-03-15T09:18:39Z</time>
      </trkpt>
      <trkpt lat="44.31232" lon="2.6603">
        <ele>692.767334</ele>
        <time>2014-03-15T09:18:49Z</time>
      </trkpt>
      <trkpt lat="44.3124" lon="2.66038">
        <ele>694.6896973</ele>
        <time>2014-03-15T09:18:56Z</time>
      </trkpt>
      <trkpt lat="44.3125" lon="2.66048">
        <ele>695.1704102</ele>
        <time>2014-03-15T09:19:04Z</time>
      </trkpt>
      <trkpt lat="44.31263" lon="2.66056">
        <ele>696.1318359</ele>
        <time>2014-03-15T09:19:13Z</time>
      </trkpt>
      <trkpt lat="44.3127" lon="2.66053">
        <ele>696.6125488</ele>
        <time>2014-03-15T09:19:18Z</time>
      </trkpt>
      <trkpt lat="44.31279" lon="2.66059">
        <ele>698.5349121</ele>
        <time>2014-03-15T09:19:25Z</time>
      </trkpt>
      <trkpt lat="44.31283" lon="2.66063">
        <ele>700.4580078</ele>
        <time>2014-03-15T09:19:31Z</time>
      </trkpt>
      <trkpt lat="44.31284" lon="2.66064">
        <ele>702.3803711</ele>
        <time>2014-03-15T09:19:37Z</time>
      </trkpt>
      <trkpt lat="44.31287" lon="2.66064">
        <ele>703.3417969</ele>
        <time>2014-03-15T09:19:51Z</time>
      </trkpt>
      <trkpt lat="44.31286" lon="2.66065">
        <ele>704.7836914</ele>
        <time>2014-03-15T09:19:55Z</time>
      </trkpt>
      <trkpt lat="44.31286" lon="2.66065">
        <ele>704.3032227</ele>
        <time>2014-03-15T09:20:03Z</time>
      </trkpt>
      <trkpt lat="44.31285" lon="2.66066">
        <ele>704.3032227</ele>
        <time>2014-03-15T09:20:09Z</time>
      </trkpt>
      <trkpt lat="44.31287" lon="2.66062">
        <ele>703.3417969</ele>
        <time>2014-03-15T09:20:18Z</time>
      </trkpt>
      <trkpt lat="44.31289" lon="2.66068">
        <ele>703.3417969</ele>
        <time>2014-03-15T09:20:23Z</time>
      </trkpt>
      <trkpt lat="44.3129" lon="2.66072">
        <ele>703.3417969</ele>
        <time>2014-03-15T09:20:29Z</time>
      </trkpt>
      <trkpt lat="44.31292" lon="2.66077">
        <ele>704.3032227</ele>
        <time>2014-03-15T09:20:39Z</time>
      </trkpt>
      <trkpt lat="44.31298" lon="2.66088">
        <ele>703.8225098</ele>
        <time>2014-03-15T09:20:48Z</time>
      </trkpt>
      <trkpt lat="44.31302" lon="2.66096">
        <ele>704.3032227</ele>
        <time>2014-03-15T09:20:55Z</time>
      </trkpt>
      <trkpt lat="44.31305" lon="2.66105">
        <ele>702.861084</ele>
        <time>2014-03-15T09:21:03Z</time>
      </trkpt>
      <trkpt lat="44.31308" lon="2.66114">
        <ele>702.861084</ele>
        <time>2014-03-15T09:21:11Z</time>
      </trkpt>
      <trkpt lat="44.3131" lon="2.66122">
        <ele>703.8225098</ele>
        <time>2014-03-15T09:21:19Z</time>
      </trkpt>
      <trkpt lat="44.31312" lon="2.66129">
        <ele>703.3417969</ele>
        <time>2014-03-15T09:21:31Z</time>
      </trkpt>
      <trkpt lat="44.31314" lon="2.6614">
        <ele>704.7836914</ele>
        <time>2014-03-15T09:21:39Z</time>
      </trkpt>
      <trkpt lat="44.31319" lon="2.66154">
        <ele>705.2644043</ele>
        <time>2014-03-15T09:21:49Z</time>
      </trkpt>
      <trkpt lat="44.31321" lon="2.66159">
        <ele>705.7451172</ele>
        <time>2014-03-15T09:21:55Z</time>
      </trkpt>
      <trkpt lat="44.31321" lon="2.66159">
        <ele>707.1870117</ele>
        <time>2014-03-15T09:22:05Z</time>
      </trkpt>
      <trkpt lat="44.31321" lon="2.66159">
        <ele>707.6677246</ele>
        <time>2014-03-15T09:22:13Z</time>
      </trkpt>
      <trkpt lat="44.31322" lon="2.66159">
        <ele>708.1484375</ele>
        <time>2014-03-15T09:23:40Z</time>
      </trkpt>
      <trkpt lat="44.31322" lon="2.66161">
        <ele>708.1484375</ele>
        <time>2014-03-15T09:23:46Z</time>
      </trkpt>
      <trkpt lat="44.31323" lon="2.66163">
        <ele>705.7451172</ele>
        <time>2014-03-15T09:23:51Z</time>
      </trkpt>
      <trkpt lat="44.31327" lon="2.66174">
        <ele>706.2255859</ele>
        <time>2014-03-15T09:23:58Z</time>
      </trkpt>
      <trkpt lat="44.31329" lon="2.66188">
        <ele>706.7062988</ele>
        <time>2014-03-15T09:24:05Z</time>
      </trkpt>
      <trkpt lat="44.31332" lon="2.66203">
        <ele>709.590332</ele>
        <time>2014-03-15T09:24:13Z</time>
      </trkpt>
      <trkpt lat="44.31334" lon="2.66214">
        <ele>711.5129395</ele>
        <time>2014-03-15T09:24:19Z</time>
      </trkpt>
      <trkpt lat="44.31339" lon="2.6623">
        <ele>712.954834</ele>
        <time>2014-03-15T09:24:28Z</time>
      </trkpt>
      <trkpt lat="44.31345" lon="2.66237">
        <ele>713.9160156</ele>
        <time>2014-03-15T09:24:34Z</time>
      </trkpt>
      <trkpt lat="44.31351" lon="2.66246">
        <ele>715.8388672</ele>
        <time>2014-03-15T09:24:41Z</time>
      </trkpt>
      <trkpt lat="44.31357" lon="2.66254">
        <ele>716.800293</ele>
        <time>2014-03-15T09:24:47Z</time>
      </trkpt>
      <trkpt lat="44.31366" lon="2.66266">
        <ele>718.7229004</ele>
        <time>2014-03-15T09:24:55Z</time>
      </trkpt>
      <trkpt lat="44.31371" lon="2.66273">
        <ele>719.6843262</ele>
        <time>2014-03-15T09:25:00Z</time>
      </trkpt>
      <trkpt lat="44.31378" lon="2.66282">
        <ele>720.1647949</ele>
        <time>2014-03-15T09:25:05Z</time>
      </trkpt>
      <trkpt lat="44.31381" lon="2.66299">
        <ele>722.5681152</ele>
        <time>2014-03-15T09:25:12Z</time>
      </trkpt>
      <trkpt lat="44.31381" lon="2.66311">
        <ele>723.529541</ele>
        <time>2014-03-15T09:25:18Z</time>
      </trkpt>
      <trkpt lat="44.3138" lon="2.66315">
        <ele>724.4907227</ele>
        <time>2014-03-15T09:25:20Z</time>
      </trkpt>
      <trkpt lat="44.3138" lon="2.6632">
        <ele>725.9326172</ele>
        <time>2014-03-15T09:25:27Z</time>
      </trkpt>
      <trkpt lat="44.31382" lon="2.66325">
        <ele>727.3747559</ele>
        <time>2014-03-15T09:25:34Z</time>
      </trkpt>
      <trkpt lat="44.31387" lon="2.66335">
        <ele>728.3359375</ele>
        <time>2014-03-15T09:25:42Z</time>
      </trkpt>
      <trkpt lat="44.3139" lon="2.66343">
        <ele>728.8166504</ele>
        <time>2014-03-15T09:25:49Z</time>
      </trkpt>
      <trkpt lat="44.31394" lon="2.6635">
        <ele>731.2199707</ele>
        <time>2014-03-15T09:25:56Z</time>
      </trkpt>
      <trkpt lat="44.314" lon="2.66356">
        <ele>733.623291</ele>
        <time>2014-03-15T09:26:02Z</time>
      </trkpt>
      <trkpt lat="44.31404" lon="2.6636">
        <ele>734.1040039</ele>
        <time>2014-03-15T09:26:06Z</time>
      </trkpt>
      <trkpt lat="44.31407" lon="2.66362">
        <ele>734.5847168</ele>
        <time>2014-03-15T09:26:12Z</time>
      </trkpt>
      <trkpt lat="44.31418" lon="2.6637">
        <ele>736.5073242</ele>
        <time>2014-03-15T09:26:19Z</time>
      </trkpt>
      <trkpt lat="44.31428" lon="2.66374">
        <ele>737.9492188</ele>
        <time>2014-03-15T09:26:26Z</time>
      </trkpt>
      <trkpt lat="44.31441" lon="2.66375">
        <ele>739.3911133</ele>
        <time>2014-03-15T09:26:34Z</time>
      </trkpt>
      <trkpt lat="44.31457" lon="2.6638">
        <ele>742.2751465</ele>
        <time>2014-03-15T09:26:43Z</time>
      </trkpt>
      <trkpt lat="44.31465" lon="2.66386">
        <ele>744.6782227</ele>
        <time>2014-03-15T09:26:49Z</time>
      </trkpt>
      <trkpt lat="44.31474" lon="2.66394">
        <ele>746.1203613</ele>
        <time>2014-03-15T09:26:56Z</time>
      </trkpt>
      <trkpt lat="44.31481" lon="2.66401">
        <ele>747.081543</ele>
        <time>2014-03-15T09:27:02Z</time>
      </trkpt>
      <trkpt lat="44.31484" lon="2.66403">
        <ele>746.1203613</ele>
        <time>2014-03-15T09:27:05Z</time>
      </trkpt>
      <trkpt lat="44.31488" lon="2.66406">
        <ele>746.6010742</ele>
        <time>2014-03-15T09:27:14Z</time>
      </trkpt>
      <trkpt lat="44.31498" lon="2.66416">
        <ele>749.0043945</ele>
        <time>2014-03-15T09:27:24Z</time>
      </trkpt>
      <trkpt lat="44.31505" lon="2.66423">
        <ele>750.927002</ele>
        <time>2014-03-15T09:27:32Z</time>
      </trkpt>
      <trkpt lat="44.31514" lon="2.66433">
        <ele>752.3688965</ele>
        <time>2014-03-15T09:27:41Z</time>
      </trkpt>
      <trkpt lat="44.31516" lon="2.66437">
        <ele>753.8110352</ele>
        <time>2014-03-15T09:27:44Z</time>
      </trkpt>
      <trkpt lat="44.3152" lon="2.6644">
        <ele>755.2529297</ele>
        <time>2014-03-15T09:27:52Z</time>
      </trkpt>
      <trkpt lat="44.31522" lon="2.66442">
        <ele>755.7336426</ele>
        <time>2014-03-15T09:27:54Z</time>
      </trkpt>
      <trkpt lat="44.31532" lon="2.66454">
        <ele>757.1755371</ele>
        <time>2014-03-15T09:28:02Z</time>
      </trkpt>
      <trkpt lat="44.31533" lon="2.66457">
        <ele>757.65625</ele>
        <time>2014-03-15T09:28:07Z</time>
      </trkpt>
      <trkpt lat="44.31534" lon="2.66456">
        <ele>756.6948242</ele>
        <time>2014-03-15T09:28:14Z</time>
      </trkpt>
      <trkpt lat="44.31533" lon="2.66457">
        <ele>759.0981445</ele>
        <time>2014-03-15T09:28:28Z</time>
      </trkpt>
      <trkpt lat="44.31531" lon="2.66461">
        <ele>766.7888184</ele>
        <time>2014-03-15T09:29:05Z</time>
      </trkpt>
      <trkpt lat="44.31535" lon="2.66458">
        <ele>760.5400391</ele>
        <time>2014-03-15T09:29:16Z</time>
      </trkpt>
      <trkpt lat="44.31535" lon="2.66457">
        <ele>758.6174316</ele>
        <time>2014-03-15T09:29:24Z</time>
      </trkpt>
      <trkpt lat="44.31536" lon="2.66456">
        <ele>758.1369629</ele>
        <time>2014-03-15T09:29:34Z</time>
      </trkpt>
      <trkpt lat="44.31537" lon="2.66457">
        <ele>757.1755371</ele>
        <time>2014-03-15T09:29:40Z</time>
      </trkpt>
      <trkpt lat="44.31537" lon="2.66456">
        <ele>756.2141113</ele>
        <time>2014-03-15T09:29:47Z</time>
      </trkpt>
      <trkpt lat="44.31538" lon="2.66456">
        <ele>754.7722168</ele>
        <time>2014-03-15T09:29:59Z</time>
      </trkpt>
      <trkpt lat="44.31538" lon="2.66457">
        <ele>754.291748</ele>
        <time>2014-03-15T09:30:07Z</time>
      </trkpt>
      <trkpt lat="44.31538" lon="2.66458">
        <ele>754.7722168</ele>
        <time>2014-03-15T09:30:17Z</time>
      </trkpt>
      <trkpt lat="44.31539" lon="2.66458">
        <ele>755.2529297</ele>
        <time>2014-03-15T09:30:24Z</time>
      </trkpt>
      <trkpt lat="44.31537" lon="2.66456">
        <ele>759.5788574</ele>
        <time>2014-03-15T09:30:40Z</time>
      </trkpt>
      <trkpt lat="44.31535" lon="2.66456">
        <ele>763.4240723</ele>
        <time>2014-03-15T09:30:54Z</time>
      </trkpt>
      <trkpt lat="44.31535" lon="2.66456">
        <ele>764.385498</ele>
        <time>2014-03-15T09:31:08Z</time>
      </trkpt>
      <trkpt lat="44.31536" lon="2.66457">
        <ele>760.5400391</ele>
        <time>2014-03-15T09:31:19Z</time>
      </trkpt>
      <trkpt lat="44.31535" lon="2.66463">
        <ele>759.0981445</ele>
        <time>2014-03-15T09:31:25Z</time>
      </trkpt>
      <trkpt lat="44.31534" lon="2.6647">
        <ele>758.1369629</ele>
        <time>2014-03-15T09:31:30Z</time>
      </trkpt>
      <trkpt lat="44.31529" lon="2.66485">
        <ele>757.65625</ele>
        <time>2014-03-15T09:31:38Z</time>
      </trkpt>
      <trkpt lat="44.31522" lon="2.66501">
        <ele>758.1369629</ele>
        <time>2014-03-15T09:31:45Z</time>
      </trkpt>
      <trkpt lat="44.31512" lon="2.66511">
        <ele>758.6174316</ele>
        <time>2014-03-15T09:31:51Z</time>
      </trkpt>
      <trkpt lat="44.31499" lon="2.66517">
        <ele>759.5788574</ele>
        <time>2014-03-15T09:31:59Z</time>
      </trkpt>
      <trkpt lat="44.31486" lon="2.66519">
        <ele>760.0593262</ele>
        <time>2014-03-15T09:32:06Z</time>
      </trkpt>
      <trkpt lat="44.31476" lon="2.66523">
        <ele>759.5788574</ele>
        <time>2014-03-15T09:32:11Z</time>
      </trkpt>
      <trkpt lat="44.3147" lon="2.66527">
        <ele>760.0593262</ele>
        <time>2014-03-15T09:32:15Z</time>
      </trkpt>
      <trkpt lat="44.31464" lon="2.66536">
        <ele>760.5400391</ele>
        <time>2014-03-15T09:32:20Z</time>
      </trkpt>
      <trkpt lat="44.31459" lon="2.6655">
        <ele>760.0593262</ele>
        <time>2014-03-15T09:32:27Z</time>
      </trkpt>
      <trkpt lat="44.31456" lon="2.66561">
        <ele>761.5014648</ele>
        <time>2014-03-15T09:32:32Z</time>
      </trkpt>
      <trkpt lat="44.31457" lon="2.6658">
        <ele>762.4626465</ele>
        <time>2014-03-15T09:32:40Z</time>
      </trkpt>
      <trkpt lat="44.31462" lon="2.66596">
        <ele>762.9433594</ele>
        <time>2014-03-15T09:32:47Z</time>
      </trkpt>
      <trkpt lat="44.31472" lon="2.66609">
        <ele>762.4626465</ele>
        <time>2014-03-15T09:32:54Z</time>
      </trkpt>
      <trkpt lat="44.31482" lon="2.66617">
        <ele>762.4626465</ele>
        <time>2014-03-15T09:33:00Z</time>
      </trkpt>
      <trkpt lat="44.31498" lon="2.66628">
        <ele>764.8662109</ele>
        <time>2014-03-15T09:33:10Z</time>
      </trkpt>
      <trkpt lat="44.3151" lon="2.66636">
        <ele>765.3469238</ele>
        <time>2014-03-15T09:33:17Z</time>
      </trkpt>
      <trkpt lat="44.31521" lon="2.66644">
        <ele>765.8276367</ele>
        <time>2014-03-15T09:33:24Z</time>
      </trkpt>
      <trkpt lat="44.31533" lon="2.66652">
        <ele>766.3081055</ele>
        <time>2014-03-15T09:33:31Z</time>
      </trkpt>
      <trkpt lat="44.31542" lon="2.66659">
        <ele>766.7888184</ele>
        <time>2014-03-15T09:33:36Z</time>
      </trkpt>
      <trkpt lat="44.31555" lon="2.66669">
        <ele>766.7888184</ele>
        <time>2014-03-15T09:33:44Z</time>
      </trkpt>
      <trkpt lat="44.31564" lon="2.66678">
        <ele>766.3081055</ele>
        <time>2014-03-15T09:33:51Z</time>
      </trkpt>
      <trkpt lat="44.31571" lon="2.66685">
        <ele>767.75</ele>
        <time>2014-03-15T09:33:56Z</time>
      </trkpt>
      <trkpt lat="44.31583" lon="2.66702">
        <ele>768.2307129</ele>
        <time>2014-03-15T09:34:05Z</time>
      </trkpt>
      <trkpt lat="44.31593" lon="2.66715">
        <ele>768.7114258</ele>
        <time>2014-03-15T09:34:12Z</time>
      </trkpt>
      <trkpt lat="44.31601" lon="2.66726">
        <ele>768.2307129</ele>
        <time>2014-03-15T09:34:18Z</time>
      </trkpt>
      <trkpt lat="44.31608" lon="2.66737">
        <ele>767.75</ele>
        <time>2014-03-15T09:34:24Z</time>
      </trkpt>
      <trkpt lat="44.31617" lon="2.66751">
        <ele>768.7114258</ele>
        <time>2014-03-15T09:34:31Z</time>
      </trkpt>
      <trkpt lat="44.31625" lon="2.66763">
        <ele>769.1921387</ele>
        <time>2014-03-15T09:34:37Z</time>
      </trkpt>
      <trkpt lat="44.31637" lon="2.66785">
        <ele>768.7114258</ele>
        <time>2014-03-15T09:34:47Z</time>
      </trkpt>
      <trkpt lat="44.31645" lon="2.66805">
        <ele>770.1533203</ele>
        <time>2014-03-15T09:34:55Z</time>
      </trkpt>
      <trkpt lat="44.31646" lon="2.66831">
        <ele>771.1147461</ele>
        <time>2014-03-15T09:35:04Z</time>
      </trkpt>
      <trkpt lat="44.31641" lon="2.66853">
        <ele>771.5952148</ele>
        <time>2014-03-15T09:35:12Z</time>
      </trkpt>
      <trkpt lat="44.31637" lon="2.66873">
        <ele>772.5566406</ele>
        <time>2014-03-15T09:35:19Z</time>
      </trkpt>
      <trkpt lat="44.31639" lon="2.66889">
        <ele>773.5180664</ele>
        <time>2014-03-15T09:35:26Z</time>
      </trkpt>
      <trkpt lat="44.31644" lon="2.66902">
        <ele>773.5180664</ele>
        <time>2014-03-15T09:35:31Z</time>
      </trkpt>
      <trkpt lat="44.31653" lon="2.66918">
        <ele>774.479248</ele>
        <time>2014-03-15T09:35:38Z</time>
      </trkpt>
      <trkpt lat="44.31664" lon="2.66932">
        <ele>774.9599609</ele>
        <time>2014-03-15T09:35:45Z</time>
      </trkpt>
      <trkpt lat="44.31676" lon="2.66953">
        <ele>774.9599609</ele>
        <time>2014-03-15T09:35:53Z</time>
      </trkpt>
      <trkpt lat="44.3168" lon="2.66975">
        <ele>775.4404297</ele>
        <time>2014-03-15T09:36:00Z</time>
      </trkpt>
      <trkpt lat="44.31677" lon="2.66997">
        <ele>775.4404297</ele>
        <time>2014-03-15T09:36:07Z</time>
      </trkpt>
      <trkpt lat="44.31666" lon="2.67027">
        <ele>776.4018555</ele>
        <time>2014-03-15T09:36:17Z</time>
      </trkpt>
      <trkpt lat="44.31654" lon="2.67047">
        <ele>776.8825684</ele>
        <time>2014-03-15T09:36:25Z</time>
      </trkpt>
      <trkpt lat="44.3164" lon="2.67064">
        <ele>776.8825684</ele>
        <time>2014-03-15T09:36:33Z</time>
      </trkpt>
      <trkpt lat="44.31623" lon="2.67078">
        <ele>777.3632813</ele>
        <time>2014-03-15T09:36:41Z</time>
      </trkpt>
      <trkpt lat="44.31603" lon="2.67089">
        <ele>777.84375</ele>
        <time>2014-03-15T09:36:50Z</time>
      </trkpt>
      <trkpt lat="44.31583" lon="2.67096">
        <ele>778.3244629</ele>
        <time>2014-03-15T09:36:59Z</time>
      </trkpt>
      <trkpt lat="44.31561" lon="2.671">
        <ele>780.2473145</ele>
        <time>2014-03-15T09:37:08Z</time>
      </trkpt>
      <trkpt lat="44.31544" lon="2.67103">
        <ele>781.2087402</ele>
        <time>2014-03-15T09:37:15Z</time>
      </trkpt>
      <trkpt lat="44.31525" lon="2.67109">
        <ele>781.2087402</ele>
        <time>2014-03-15T09:37:23Z</time>
      </trkpt>
      <trkpt lat="44.31512" lon="2.67114">
        <ele>781.689209</ele>
        <time>2014-03-15T09:37:28Z</time>
      </trkpt>
      <trkpt lat="44.31492" lon="2.67125">
        <ele>782.6506348</ele>
        <time>2014-03-15T09:37:36Z</time>
      </trkpt>
      <trkpt lat="44.31475" lon="2.67138">
        <ele>783.1311035</ele>
        <time>2014-03-15T09:37:43Z</time>
      </trkpt>
      <trkpt lat="44.3146" lon="2.67163">
        <ele>783.1311035</ele>
        <time>2014-03-15T09:37:51Z</time>
      </trkpt>
      <trkpt lat="44.31452" lon="2.67193">
        <ele>784.0925293</ele>
        <time>2014-03-15T09:37:59Z</time>
      </trkpt>
      <trkpt lat="44.31451" lon="2.67226">
        <ele>785.0539551</ele>
        <time>2014-03-15T09:38:07Z</time>
      </trkpt>
      <trkpt lat="44.31453" lon="2.67264">
        <ele>785.5344238</ele>
        <time>2014-03-15T09:38:17Z</time>
      </trkpt>
      <trkpt lat="44.3146" lon="2.67298">
        <ele>786.4958496</ele>
        <time>2014-03-15T09:38:26Z</time>
      </trkpt>
      <trkpt lat="44.3147" lon="2.67316">
        <ele>787.4570313</ele>
        <time>2014-03-15T09:38:32Z</time>
      </trkpt>
      <trkpt lat="44.31485" lon="2.67332">
        <ele>787.4570313</ele>
        <time>2014-03-15T09:38:39Z</time>
      </trkpt>
      <trkpt lat="44.31498" lon="2.67344">
        <ele>786.4958496</ele>
        <time>2014-03-15T09:38:45Z</time>
      </trkpt>
      <trkpt lat="44.31515" lon="2.67357">
        <ele>786.9763184</ele>
        <time>2014-03-15T09:38:52Z</time>
      </trkpt>
      <trkpt lat="44.31531" lon="2.67372">
        <ele>786.9763184</ele>
        <time>2014-03-15T09:38:59Z</time>
      </trkpt>
      <trkpt lat="44.31547" lon="2.67386">
        <ele>786.4958496</ele>
        <time>2014-03-15T09:39:06Z</time>
      </trkpt>
      <trkpt lat="44.31562" lon="2.674">
        <ele>786.4958496</ele>
        <time>2014-03-15T09:39:12Z</time>
      </trkpt>
      <trkpt lat="44.31589" lon="2.67426">
        <ele>786.9763184</ele>
        <time>2014-03-15T09:39:22Z</time>
      </trkpt>
      <trkpt lat="44.31609" lon="2.67443">
        <ele>788.418457</ele>
        <time>2014-03-15T09:39:30Z</time>
      </trkpt>
      <trkpt lat="44.31626" lon="2.67448">
        <ele>787.4570313</ele>
        <time>2014-03-15T09:39:36Z</time>
      </trkpt>
      <trkpt lat="44.31648" lon="2.67451">
        <ele>787.9377441</ele>
        <time>2014-03-15T09:39:43Z</time>
      </trkpt>
      <trkpt lat="44.31669" lon="2.67456">
        <ele>788.418457</ele>
        <time>2014-03-15T09:39:50Z</time>
      </trkpt>
      <trkpt lat="44.31685" lon="2.67468">
        <ele>787.9377441</ele>
        <time>2014-03-15T09:39:56Z</time>
      </trkpt>
      <trkpt lat="44.31697" lon="2.67491">
        <ele>788.8991699</ele>
        <time>2014-03-15T09:40:03Z</time>
      </trkpt>
      <trkpt lat="44.31709" lon="2.67514">
        <ele>790.3410645</ele>
        <time>2014-03-15T09:40:10Z</time>
      </trkpt>
      <trkpt lat="44.31727" lon="2.67528">
        <ele>792.2636719</ele>
        <time>2014-03-15T09:40:17Z</time>
      </trkpt>
      <trkpt lat="44.31746" lon="2.67532">
        <ele>793.7055664</ele>
        <time>2014-03-15T09:40:24Z</time>
      </trkpt>
      <trkpt lat="44.3176" lon="2.67544">
        <ele>793.7055664</ele>
        <time>2014-03-15T09:40:30Z</time>
      </trkpt>
      <trkpt lat="44.3177" lon="2.67568">
        <ele>794.1862793</ele>
        <time>2014-03-15T09:40:37Z</time>
      </trkpt>
      <trkpt lat="44.31774" lon="2.67594">
        <ele>795.1474609</ele>
        <time>2014-03-15T09:40:44Z</time>
      </trkpt>
      <trkpt lat="44.31779" lon="2.67624">
        <ele>796.5898438</ele>
        <time>2014-03-15T09:40:52Z</time>
      </trkpt>
      <trkpt lat="44.31787" lon="2.67652">
        <ele>797.0703125</ele>
        <time>2014-03-15T09:41:00Z</time>
      </trkpt>
      <trkpt lat="44.31794" lon="2.67675">
        <ele>796.1091309</ele>
        <time>2014-03-15T09:41:07Z</time>
      </trkpt>
      <trkpt lat="44.31804" lon="2.67693">
        <ele>795.6281738</ele>
        <time>2014-03-15T09:41:13Z</time>
      </trkpt>
      <trkpt lat="44.31821" lon="2.67716">
        <ele>797.5510254</ele>
        <time>2014-03-15T09:41:21Z</time>
      </trkpt>
      <trkpt lat="44.31838" lon="2.67732">
        <ele>798.9929199</ele>
        <time>2014-03-15T09:41:28Z</time>
      </trkpt>
      <trkpt lat="44.31852" lon="2.67742">
        <ele>797.5510254</ele>
        <time>2014-03-15T09:41:33Z</time>
      </trkpt>
      <trkpt lat="44.31873" lon="2.6775">
        <ele>796.1091309</ele>
        <time>2014-03-15T09:41:40Z</time>
      </trkpt>
      <trkpt lat="44.31893" lon="2.67754">
        <ele>796.5898438</ele>
        <time>2014-03-15T09:41:47Z</time>
      </trkpt>
      <trkpt lat="44.31914" lon="2.67755">
        <ele>797.5510254</ele>
        <time>2014-03-15T09:41:54Z</time>
      </trkpt>
      <trkpt lat="44.3193" lon="2.67766">
        <ele>798.512207</ele>
        <time>2014-03-15T09:42:00Z</time>
      </trkpt>
      <trkpt lat="44.31942" lon="2.67787">
        <ele>799.4736328</ele>
        <time>2014-03-15T09:42:06Z</time>
      </trkpt>
      <trkpt lat="44.31949" lon="2.6782">
        <ele>802.3574219</ele>
        <time>2014-03-15T09:42:14Z</time>
      </trkpt>
      <trkpt lat="44.31951" lon="2.67855">
        <ele>803.3188477</ele>
        <time>2014-03-15T09:42:22Z</time>
      </trkpt>
      <trkpt lat="44.31955" lon="2.67898">
        <ele>804.7607422</ele>
        <time>2014-03-15T09:42:32Z</time>
      </trkpt>
      <trkpt lat="44.31967" lon="2.67922">
        <ele>805.2414551</ele>
        <time>2014-03-15T09:42:39Z</time>
      </trkpt>
      <trkpt lat="44.31982" lon="2.67936">
        <ele>806.6833496</ele>
        <time>2014-03-15T09:42:45Z</time>
      </trkpt>
      <trkpt lat="44.31994" lon="2.67955">
        <ele>808.1254883</ele>
        <time>2014-03-15T09:42:51Z</time>
      </trkpt>
      <trkpt lat="44.31998" lon="2.67979">
        <ele>808.605957</ele>
        <time>2014-03-15T09:42:57Z</time>
      </trkpt>
      <trkpt lat="44.31992" lon="2.68011">
        <ele>809.5673828</ele>
        <time>2014-03-15T09:43:05Z</time>
      </trkpt>
      <trkpt lat="44.31983" lon="2.68043">
        <ele>810.0478516</ele>
        <time>2014-03-15T09:43:13Z</time>
      </trkpt>
      <trkpt lat="44.31972" lon="2.68083">
        <ele>810.5285645</ele>
        <time>2014-03-15T09:43:23Z</time>
      </trkpt>
      <trkpt lat="44.31966" lon="2.68111">
        <ele>810.5285645</ele>
        <time>2014-03-15T09:43:30Z</time>
      </trkpt>
      <trkpt lat="44.31965" lon="2.68146">
        <ele>811.0092773</ele>
        <time>2014-03-15T09:43:38Z</time>
      </trkpt>
      <trkpt lat="44.31966" lon="2.68172">
        <ele>811.9707031</ele>
        <time>2014-03-15T09:43:44Z</time>
      </trkpt>
      <trkpt lat="44.31975" lon="2.68199">
        <ele>812.9321289</ele>
        <time>2014-03-15T09:43:51Z</time>
      </trkpt>
      <trkpt lat="44.31987" lon="2.68224">
        <ele>811.9707031</ele>
        <time>2014-03-15T09:43:59Z</time>
      </trkpt>
      <trkpt lat="44.32" lon="2.68246">
        <ele>811.9707031</ele>
        <time>2014-03-15T09:44:06Z</time>
      </trkpt>
      <trkpt lat="44.32013" lon="2.6827">
        <ele>813.4128418</ele>
        <time>2014-03-15T09:44:13Z</time>
      </trkpt>
      <trkpt lat="44.32021" lon="2.68288">
        <ele>813.4128418</ele>
        <time>2014-03-15T09:44:18Z</time>
      </trkpt>
      <trkpt lat="44.32031" lon="2.68289">
        <ele>814.3740234</ele>
        <time>2014-03-15T09:44:22Z</time>
      </trkpt>
      <trkpt lat="44.32049" lon="2.68278">
        <ele>814.3740234</ele>
        <time>2014-03-15T09:44:29Z</time>
      </trkpt>
      <trkpt lat="44.32055" lon="2.68259">
        <ele>812.9321289</ele>
        <time>2014-03-15T09:44:34Z</time>
      </trkpt>
      <trkpt lat="44.32063" lon="2.68231">
        <ele>811.9707031</ele>
        <time>2014-03-15T09:44:41Z</time>
      </trkpt>
      <trkpt lat="44.32069" lon="2.6821">
        <ele>811.0092773</ele>
        <time>2014-03-15T09:44:46Z</time>
      </trkpt>
      <trkpt lat="44.32069" lon="2.68195">
        <ele>812.451416</ele>
        <time>2014-03-15T09:44:51Z</time>
      </trkpt>
      <trkpt lat="44.32065" lon="2.68179">
        <ele>813.4128418</ele>
        <time>2014-03-15T09:44:56Z</time>
      </trkpt>
      <trkpt lat="44.32063" lon="2.68157">
        <ele>815.3354492</ele>
        <time>2014-03-15T09:45:01Z</time>
      </trkpt>
      <trkpt lat="44.32061" lon="2.68129">
        <ele>817.2580566</ele>
        <time>2014-03-15T09:45:08Z</time>
      </trkpt>
      <trkpt lat="44.32065" lon="2.68101">
        <ele>819.1806641</ele>
        <time>2014-03-15T09:45:15Z</time>
      </trkpt>
      <trkpt lat="44.32067" lon="2.68069">
        <ele>822.0644531</ele>
        <time>2014-03-15T09:45:23Z</time>
      </trkpt>
      <trkpt lat="44.3207" lon="2.68046">
        <ele>821.5837402</ele>
        <time>2014-03-15T09:45:29Z</time>
      </trkpt>
      <trkpt lat="44.32074" lon="2.68025">
        <ele>820.6225586</ele>
        <time>2014-03-15T09:45:35Z</time>
      </trkpt>
      <trkpt lat="44.3208" lon="2.67995">
        <ele>820.6225586</ele>
        <time>2014-03-15T09:45:42Z</time>
      </trkpt>
      <trkpt lat="44.32093" lon="2.67951">
        <ele>821.5837402</ele>
        <time>2014-03-15T09:45:52Z</time>
      </trkpt>
      <trkpt lat="44.32099" lon="2.6793">
        <ele>821.1032715</ele>
        <time>2014-03-15T09:45:58Z</time>
      </trkpt>
      <trkpt lat="44.32104" lon="2.67918">
        <ele>821.1032715</ele>
        <time>2014-03-15T09:46:04Z</time>
      </trkpt>
      <trkpt lat="44.32111" lon="2.67905">
        <ele>821.5837402</ele>
        <time>2014-03-15T09:46:08Z</time>
      </trkpt>
      <trkpt lat="44.32125" lon="2.67875">
        <ele>823.5065918</ele>
        <time>2014-03-15T09:46:16Z</time>
      </trkpt>
      <trkpt lat="44.32136" lon="2.67847">
        <ele>824.4677734</ele>
        <time>2014-03-15T09:46:23Z</time>
      </trkpt>
      <trkpt lat="44.32142" lon="2.67811">
        <ele>824.4677734</ele>
        <time>2014-03-15T09:46:31Z</time>
      </trkpt>
      <trkpt lat="44.32147" lon="2.67774">
        <ele>824.9484863</ele>
        <time>2014-03-15T09:46:38Z</time>
      </trkpt>
      <trkpt lat="44.3215" lon="2.67748">
        <ele>825.4289551</ele>
        <time>2014-03-15T09:46:43Z</time>
      </trkpt>
      <trkpt lat="44.32155" lon="2.67717">
        <ele>826.3903809</ele>
        <time>2014-03-15T09:46:51Z</time>
      </trkpt>
      <trkpt lat="44.3216" lon="2.67686">
        <ele>825.909668</ele>
        <time>2014-03-15T09:46:58Z</time>
      </trkpt>
      <trkpt lat="44.32165" lon="2.67647">
        <ele>824.9484863</ele>
        <time>2014-03-15T09:47:06Z</time>
      </trkpt>
      <trkpt lat="44.32171" lon="2.67606">
        <ele>823.0258789</ele>
        <time>2014-03-15T09:47:13Z</time>
      </trkpt>
      <trkpt lat="44.32179" lon="2.67561">
        <ele>821.1032715</ele>
        <time>2014-03-15T09:47:20Z</time>
      </trkpt>
      <trkpt lat="44.32189" lon="2.67515">
        <ele>819.1806641</ele>
        <time>2014-03-15T09:47:28Z</time>
      </trkpt>
      <trkpt lat="44.32202" lon="2.67464">
        <ele>816.2966309</ele>
        <time>2014-03-15T09:47:36Z</time>
      </trkpt>
      <trkpt lat="44.3221" lon="2.6743">
        <ele>813.8933105</ele>
        <time>2014-03-15T09:47:41Z</time>
      </trkpt>
      <trkpt lat="44.3221" lon="2.67388">
        <ele>810.5285645</ele>
        <time>2014-03-15T09:47:46Z</time>
      </trkpt>
      <trkpt lat="44.32207" lon="2.67373">
        <ele>809.5673828</ele>
        <time>2014-03-15T09:47:49Z</time>
      </trkpt>
      <trkpt lat="44.32208" lon="2.67356">
        <ele>807.6447754</ele>
        <time>2014-03-15T09:47:56Z</time>
      </trkpt>
      <trkpt lat="44.3221" lon="2.67334">
        <ele>806.6833496</ele>
        <time>2014-03-15T09:48:02Z</time>
      </trkpt>
      <trkpt lat="44.32218" lon="2.67299">
        <ele>805.2414551</ele>
        <time>2014-03-15T09:48:09Z</time>
      </trkpt>
      <trkpt lat="44.3223" lon="2.67272">
        <ele>802.8381348</ele>
        <time>2014-03-15T09:48:14Z</time>
      </trkpt>
      <trkpt lat="44.32247" lon="2.67242">
        <ele>801.3962402</ele>
        <time>2014-03-15T09:48:18Z</time>
      </trkpt>
      <trkpt lat="44.32283" lon="2.67192">
        <ele>799.9543457</ele>
        <time>2014-03-15T09:48:25Z</time>
      </trkpt>
      <trkpt lat="44.32295" lon="2.67179">
        <ele>799.4736328</ele>
        <time>2014-03-15T09:48:27Z</time>
      </trkpt>
      <trkpt lat="44.32328" lon="2.67145">
        <ele>798.512207</ele>
        <time>2014-03-15T09:48:33Z</time>
      </trkpt>
      <trkpt lat="44.32342" lon="2.67129">
        <ele>799.4736328</ele>
        <time>2014-03-15T09:48:36Z</time>
      </trkpt>
      <trkpt lat="44.32388" lon="2.67085">
        <ele>798.512207</ele>
        <time>2014-03-15T09:48:46Z</time>
      </trkpt>
      <trkpt lat="44.32421" lon="2.67051">
        <ele>798.0317383</ele>
        <time>2014-03-15T09:48:54Z</time>
      </trkpt>
      <trkpt lat="44.32449" lon="2.67026">
        <ele>797.5510254</ele>
        <time>2014-03-15T09:49:01Z</time>
      </trkpt>
      <trkpt lat="44.3248" lon="2.66996">
        <ele>795.1474609</ele>
        <time>2014-03-15T09:49:07Z</time>
      </trkpt>
      <trkpt lat="44.32502" lon="2.66975">
        <ele>793.2248535</ele>
        <time>2014-03-15T09:49:11Z</time>
      </trkpt>
      <trkpt lat="44.32556" lon="2.66943">
        <ele>790.8215332</ele>
        <time>2014-03-15T09:49:20Z</time>
      </trkpt>
      <trkpt lat="44.32585" lon="2.66924">
        <ele>788.8991699</ele>
        <time>2014-03-15T09:49:25Z</time>
      </trkpt>
      <trkpt lat="44.32609" lon="2.66897">
        <ele>786.0151367</ele>
        <time>2014-03-15T09:49:30Z</time>
      </trkpt>
      <trkpt lat="44.32622" lon="2.66867">
        <ele>783.6118164</ele>
        <time>2014-03-15T09:49:34Z</time>
      </trkpt>
      <trkpt lat="44.32632" lon="2.66829">
        <ele>780.7280273</ele>
        <time>2014-03-15T09:49:39Z</time>
      </trkpt>
      <trkpt lat="44.32629" lon="2.66788">
        <ele>776.8825684</ele>
        <time>2014-03-15T09:49:44Z</time>
      </trkpt>
      <trkpt lat="44.3263" lon="2.66746">
        <ele>773.0373535</ele>
        <time>2014-03-15T09:49:48Z</time>
      </trkpt>
      <trkpt lat="44.32638" lon="2.66701">
        <ele>771.1147461</ele>
        <time>2014-03-15T09:49:52Z</time>
      </trkpt>
      <trkpt lat="44.32642" lon="2.66681">
        <ele>771.1147461</ele>
        <time>2014-03-15T09:49:54Z</time>
      </trkpt>
      <trkpt lat="44.32644" lon="2.66646">
        <ele>770.6340332</ele>
        <time>2014-03-15T09:49:58Z</time>
      </trkpt>
      <trkpt lat="44.32654" lon="2.66607">
        <ele>770.6340332</ele>
        <time>2014-03-15T09:50:04Z</time>
      </trkpt>
      <trkpt lat="44.32657" lon="2.66601">
        <ele>770.6340332</ele>
        <time>2014-03-15T09:50:05Z</time>
      </trkpt>
      <trkpt lat="44.32671" lon="2.66568">
        <ele>768.7114258</ele>
        <time>2014-03-15T09:50:10Z</time>
      </trkpt>
      <trkpt lat="44.32689" lon="2.66551">
        <ele>767.2695313</ele>
        <time>2014-03-15T09:50:13Z</time>
      </trkpt>
      <trkpt lat="44.32737" lon="2.66518">
        <ele>765.8276367</ele>
        <time>2014-03-15T09:50:20Z</time>
      </trkpt>
      <trkpt lat="44.32768" lon="2.66497">
        <ele>764.385498</ele>
        <time>2014-03-15T09:50:25Z</time>
      </trkpt>
      <trkpt lat="44.3278" lon="2.66492">
        <ele>764.385498</ele>
        <time>2014-03-15T09:50:27Z</time>
      </trkpt>
      <trkpt lat="44.32815" lon="2.66469">
        <ele>761.020752</ele>
        <time>2014-03-15T09:50:33Z</time>
      </trkpt>
      <trkpt lat="44.32835" lon="2.66461">
        <ele>759.0981445</ele>
        <time>2014-03-15T09:50:36Z</time>
      </trkpt>
      <trkpt lat="44.32862" lon="2.66452">
        <ele>755.7336426</ele>
        <time>2014-03-15T09:50:40Z</time>
      </trkpt>
      <trkpt lat="44.32883" lon="2.66448">
        <ele>753.8110352</ele>
        <time>2014-03-15T09:50:43Z</time>
      </trkpt>
      <trkpt lat="44.32909" lon="2.66427">
        <ele>750.4465332</ele>
        <time>2014-03-15T09:50:47Z</time>
      </trkpt>
      <trkpt lat="44.32916" lon="2.66415">
        <ele>749.4851074</ele>
        <time>2014-03-15T09:50:48Z</time>
      </trkpt>
      <trkpt lat="44.32929" lon="2.66389">
        <ele>747.5622559</ele>
        <time>2014-03-15T09:50:51Z</time>
      </trkpt>
      <trkpt lat="44.32932" lon="2.66358">
        <ele>745.6396484</ele>
        <time>2014-03-15T09:50:55Z</time>
      </trkpt>
      <trkpt lat="44.32917" lon="2.66342">
        <ele>746.1203613</ele>
        <time>2014-03-15T09:50:58Z</time>
      </trkpt>
      <trkpt lat="44.32911" lon="2.66339">
        <ele>746.1203613</ele>
        <time>2014-03-15T09:50:59Z</time>
      </trkpt>
      <trkpt lat="44.32873" lon="2.6631">
        <ele>745.1589355</ele>
        <time>2014-03-15T09:51:05Z</time>
      </trkpt>
      <trkpt lat="44.32856" lon="2.66294">
        <ele>744.1977539</ele>
        <time>2014-03-15T09:51:08Z</time>
      </trkpt>
      <trkpt lat="44.32829" lon="2.6629">
        <ele>742.2751465</ele>
        <time>2014-03-15T09:51:13Z</time>
      </trkpt>
      <trkpt lat="44.32797" lon="2.6629">
        <ele>739.8718262</ele>
        <time>2014-03-15T09:51:18Z</time>
      </trkpt>
      <trkpt lat="44.32789" lon="2.66264">
        <ele>737.4685059</ele>
        <time>2014-03-15T09:51:21Z</time>
      </trkpt>
      <trkpt lat="44.32793" lon="2.66233">
        <ele>736.0266113</ele>
        <time>2014-03-15T09:51:24Z</time>
      </trkpt>
      <trkpt lat="44.32798" lon="2.66214">
        <ele>735.0654297</ele>
        <time>2014-03-15T09:51:26Z</time>
      </trkpt>
      <trkpt lat="44.32803" lon="2.66197">
        <ele>734.1040039</ele>
        <time>2014-03-15T09:51:28Z</time>
      </trkpt>
      <trkpt lat="44.3282" lon="2.66169">
        <ele>733.1425781</ele>
        <time>2014-03-15T09:51:32Z</time>
      </trkpt>
      <trkpt lat="44.32857" lon="2.66142">
        <ele>730.7392578</ele>
        <time>2014-03-15T09:51:38Z</time>
      </trkpt>
      <trkpt lat="44.32892" lon="2.66129">
        <ele>730.7392578</ele>
        <time>2014-03-15T09:51:43Z</time>
      </trkpt>
      <trkpt lat="44.32927" lon="2.66118">
        <ele>729.2971191</ele>
        <time>2014-03-15T09:51:48Z</time>
      </trkpt>
      <trkpt lat="44.32965" lon="2.6611">
        <ele>727.8552246</ele>
        <time>2014-03-15T09:51:53Z</time>
      </trkpt>
      <trkpt lat="44.32978" lon="2.66111">
        <ele>727.3747559</ele>
        <time>2014-03-15T09:51:55Z</time>
      </trkpt>
      <trkpt lat="44.32995" lon="2.66117">
        <ele>727.8552246</ele>
        <time>2014-03-15T09:51:59Z</time>
      </trkpt>
      <trkpt lat="44.33011" lon="2.66113">
        <ele>724.9714355</ele>
        <time>2014-03-15T09:52:03Z</time>
      </trkpt>
      <trkpt lat="44.33028" lon="2.66102">
        <ele>723.0488281</ele>
        <time>2014-03-15T09:52:06Z</time>
      </trkpt>
      <trkpt lat="44.33052" lon="2.66086">
        <ele>721.1262207</ele>
        <time>2014-03-15T09:52:10Z</time>
      </trkpt>
      <trkpt lat="44.33061" lon="2.66076">
        <ele>719.6843262</ele>
        <time>2014-03-15T09:52:12Z</time>
      </trkpt>
      <trkpt lat="44.33074" lon="2.66061">
        <ele>717.7614746</ele>
        <time>2014-03-15T09:52:15Z</time>
      </trkpt>
      <trkpt lat="44.33105" lon="2.66042">
        <ele>715.8388672</ele>
        <time>2014-03-15T09:52:20Z</time>
      </trkpt>
      <trkpt lat="44.33127" lon="2.66029">
        <ele>712.954834</ele>
        <time>2014-03-15T09:52:24Z</time>
      </trkpt>
      <trkpt lat="44.33139" lon="2.66013">
        <ele>710.5515137</ele>
        <time>2014-03-15T09:52:27Z</time>
      </trkpt>
      <trkpt lat="44.33154" lon="2.65998">
        <ele>708.6289063</ele>
        <time>2014-03-15T09:52:31Z</time>
      </trkpt>
      <trkpt lat="44.3316" lon="2.65981">
        <ele>708.1484375</ele>
        <time>2014-03-15T09:52:35Z</time>
      </trkpt>
      <trkpt lat="44.33151" lon="2.65961">
        <ele>707.1870117</ele>
        <time>2014-03-15T09:52:39Z</time>
      </trkpt>
      <trkpt lat="44.33132" lon="2.6595">
        <ele>706.7062988</ele>
        <time>2014-03-15T09:52:43Z</time>
      </trkpt>
      <trkpt lat="44.331" lon="2.65944">
        <ele>705.2644043</ele>
        <time>2014-03-15T09:52:48Z</time>
      </trkpt>
      <trkpt lat="44.33078" lon="2.65926">
        <ele>702.861084</ele>
        <time>2014-03-15T09:52:52Z</time>
      </trkpt>
      <trkpt lat="44.33075" lon="2.65905">
        <ele>701.4191895</ele>
        <time>2014-03-15T09:52:54Z</time>
      </trkpt>
      <trkpt lat="44.33073" lon="2.65888">
        <ele>699.015625</ele>
        <time>2014-03-15T09:52:56Z</time>
      </trkpt>
      <trkpt lat="44.33071" lon="2.65871">
        <ele>698.0544434</ele>
        <time>2014-03-15T09:52:58Z</time>
      </trkpt>
      <trkpt lat="44.33057" lon="2.65835">
        <ele>693.2478027</ele>
        <time>2014-03-15T09:53:02Z</time>
      </trkpt>
      <trkpt lat="44.3305" lon="2.65808">
        <ele>691.8059082</ele>
        <time>2014-03-15T09:53:05Z</time>
      </trkpt>
      <trkpt lat="44.33038" lon="2.65781">
        <ele>689.8833008</ele>
        <time>2014-03-15T09:53:11Z</time>
      </trkpt>
      <trkpt lat="44.33025" lon="2.65778">
        <ele>688.4414063</ele>
        <time>2014-03-15T09:53:15Z</time>
      </trkpt>
      <trkpt lat="44.33005" lon="2.6577">
        <ele>688.9221191</ele>
        <time>2014-03-15T09:53:24Z</time>
      </trkpt>
      <trkpt lat="44.32993" lon="2.65762">
        <ele>689.4025879</ele>
        <time>2014-03-15T09:53:31Z</time>
      </trkpt>
      <trkpt lat="44.32978" lon="2.65752">
        <ele>690.3640137</ele>
        <time>2014-03-15T09:53:39Z</time>
      </trkpt>
      <trkpt lat="44.32969" lon="2.65746">
        <ele>692.2866211</ele>
        <time>2014-03-15T09:53:44Z</time>
      </trkpt>
      <trkpt lat="44.32958" lon="2.65739">
        <ele>693.7285156</ele>
        <time>2014-03-15T09:53:50Z</time>
      </trkpt>
      <trkpt lat="44.32942" lon="2.65736">
        <ele>691.8059082</ele>
        <time>2014-03-15T09:53:56Z</time>
      </trkpt>
      <trkpt lat="44.32921" lon="2.65725">
        <ele>689.8833008</ele>
        <time>2014-03-15T09:54:03Z</time>
      </trkpt>
      <trkpt lat="44.32908" lon="2.65707">
        <ele>688.9221191</ele>
        <time>2014-03-15T09:54:08Z</time>
      </trkpt>
      <trkpt lat="44.32895" lon="2.65682">
        <ele>687.9606934</ele>
        <time>2014-03-15T09:54:14Z</time>
      </trkpt>
      <trkpt lat="44.3289" lon="2.65654">
        <ele>684.5961914</ele>
        <time>2014-03-15T09:54:20Z</time>
      </trkpt>
      <trkpt lat="44.32889" lon="2.6562">
        <ele>680.2700195</ele>
        <time>2014-03-15T09:54:26Z</time>
      </trkpt>
      <trkpt lat="44.32891" lon="2.65614">
        <ele>679.3085938</ele>
        <time>2014-03-15T09:54:27Z</time>
      </trkpt>
      <trkpt lat="44.32897" lon="2.65607">
        <ele>678.828125</ele>
        <time>2014-03-15T09:54:29Z</time>
      </trkpt>
      <trkpt lat="44.32908" lon="2.65579">
        <ele>676.4248047</ele>
        <time>2014-03-15T09:54:34Z</time>
      </trkpt>
      <trkpt lat="44.32914" lon="2.65558">
        <ele>674.5021973</ele>
        <time>2014-03-15T09:54:37Z</time>
      </trkpt>
      <trkpt lat="44.32923" lon="2.65507">
        <ele>671.1376953</ele>
        <time>2014-03-15T09:54:44Z</time>
      </trkpt>
      <trkpt lat="44.32924" lon="2.65501">
        <ele>671.1376953</ele>
        <time>2014-03-15T09:54:45Z</time>
      </trkpt>
      <trkpt lat="44.32919" lon="2.65482">
        <ele>670.6569824</ele>
        <time>2014-03-15T09:54:49Z</time>
      </trkpt>
      <trkpt lat="44.32901" lon="2.65459">
        <ele>670.1762695</ele>
        <time>2014-03-15T09:54:57Z</time>
      </trkpt>
      <trkpt lat="44.32887" lon="2.65447">
        <ele>669.6958008</ele>
        <time>2014-03-15T09:55:03Z</time>
      </trkpt>
      <trkpt lat="44.32881" lon="2.65419">
        <ele>669.2150879</ele>
        <time>2014-03-15T09:55:09Z</time>
      </trkpt>
      <trkpt lat="44.3288" lon="2.6538">
        <ele>667.2922363</ele>
        <time>2014-03-15T09:55:15Z</time>
      </trkpt>
      <trkpt lat="44.32883" lon="2.65336">
        <ele>665.3696289</ele>
        <time>2014-03-15T09:55:22Z</time>
      </trkpt>
      <trkpt lat="44.32883" lon="2.6533">
        <ele>665.3696289</ele>
        <time>2014-03-15T09:55:23Z</time>
      </trkpt>
      <trkpt lat="44.32888" lon="2.65282">
        <ele>662.9663086</ele>
        <time>2014-03-15T09:55:30Z</time>
      </trkpt>
      <trkpt lat="44.32889" lon="2.65269">
        <ele>662.005127</ele>
        <time>2014-03-15T09:55:32Z</time>
      </trkpt>
      <trkpt lat="44.32895" lon="2.65247">
        <ele>660.0822754</ele>
        <time>2014-03-15T09:55:36Z</time>
      </trkpt>
      <trkpt lat="44.32899" lon="2.65237">
        <ele>659.1210938</ele>
        <time>2014-03-15T09:55:38Z</time>
      </trkpt>
      <trkpt lat="44.32914" lon="2.65206">
        <ele>655.2758789</ele>
        <time>2014-03-15T09:55:44Z</time>
      </trkpt>
      <trkpt lat="44.32929" lon="2.65173">
        <ele>651.9111328</ele>
        <time>2014-03-15T09:55:50Z</time>
      </trkpt>
      <trkpt lat="44.32945" lon="2.65164">
        <ele>649.5078125</ele>
        <time>2014-03-15T09:55:54Z</time>
      </trkpt>
      <trkpt lat="44.32951" lon="2.65157">
        <ele>648.5463867</ele>
        <time>2014-03-15T09:55:56Z</time>
      </trkpt>
      <trkpt lat="44.32959" lon="2.65145">
        <ele>648.065918</ele>
        <time>2014-03-15T09:55:59Z</time>
      </trkpt>
      <trkpt lat="44.32978" lon="2.65119">
        <ele>646.6240234</ele>
        <time>2014-03-15T09:56:07Z</time>
      </trkpt>
      <trkpt lat="44.32987" lon="2.65106">
        <ele>646.1433105</ele>
        <time>2014-03-15T09:56:13Z</time>
      </trkpt>
      <trkpt lat="44.32992" lon="2.651">
        <ele>645.1818848</ele>
        <time>2014-03-15T09:56:16Z</time>
      </trkpt>
      <trkpt lat="44.33006" lon="2.65094">
        <ele>645.6625977</ele>
        <time>2014-03-15T09:56:21Z</time>
      </trkpt>
      <trkpt lat="44.33014" lon="2.65082">
        <ele>643.2592773</ele>
        <time>2014-03-15T09:56:27Z</time>
      </trkpt>
      <trkpt lat="44.33023" lon="2.6507">
        <ele>644.2207031</ele>
        <time>2014-03-15T09:56:33Z</time>
      </trkpt>
      <trkpt lat="44.33028" lon="2.65062">
        <ele>643.2592773</ele>
        <time>2014-03-15T09:56:37Z</time>
      </trkpt>
      <trkpt lat="44.33029" lon="2.65058">
        <ele>642.7788086</ele>
        <time>2014-03-15T09:56:39Z</time>
      </trkpt>
      <trkpt lat="44.33032" lon="2.65053">
        <ele>643.7399902</ele>
        <time>2014-03-15T09:56:46Z</time>
      </trkpt>
      <trkpt lat="44.33035" lon="2.65047">
        <ele>646.1433105</ele>
        <time>2014-03-15T09:56:54Z</time>
      </trkpt>
      <trkpt lat="44.33035" lon="2.65046">
        <ele>647.1044922</ele>
        <time>2014-03-15T09:56:59Z</time>
      </trkpt>
      <trkpt lat="44.33038" lon="2.65034">
        <ele>648.065918</ele>
        <time>2014-03-15T09:57:05Z</time>
      </trkpt>
      <trkpt lat="44.33044" lon="2.65015">
        <ele>648.065918</ele>
        <time>2014-03-15T09:57:12Z</time>
      </trkpt>
      <trkpt lat="44.33046" lon="2.64986">
        <ele>647.5852051</ele>
        <time>2014-03-15T09:57:20Z</time>
      </trkpt>
      <trkpt lat="44.33049" lon="2.64962">
        <ele>648.065918</ele>
        <time>2014-03-15T09:57:27Z</time>
      </trkpt>
      <trkpt lat="44.33052" lon="2.64935">
        <ele>649.5078125</ele>
        <time>2014-03-15T09:57:35Z</time>
      </trkpt>
      <trkpt lat="44.33054" lon="2.64907">
        <ele>651.9111328</ele>
        <time>2014-03-15T09:57:42Z</time>
      </trkpt>
      <trkpt lat="44.33055" lon="2.64882">
        <ele>653.3532715</ele>
        <time>2014-03-15T09:57:48Z</time>
      </trkpt>
      <trkpt lat="44.33057" lon="2.64865">
        <ele>654.795166</ele>
        <time>2014-03-15T09:57:53Z</time>
      </trkpt>
      <trkpt lat="44.33062" lon="2.64846">
        <ele>656.7177734</ele>
        <time>2014-03-15T09:57:59Z</time>
      </trkpt>
      <trkpt lat="44.33068" lon="2.64829">
        <ele>659.6018066</ele>
        <time>2014-03-15T09:58:04Z</time>
      </trkpt>
      <trkpt lat="44.33071" lon="2.64803">
        <ele>661.0437012</ele>
        <time>2014-03-15T09:58:11Z</time>
      </trkpt>
      <trkpt lat="44.33073" lon="2.64777">
        <ele>663.4470215</ele>
        <time>2014-03-15T09:58:19Z</time>
      </trkpt>
      <trkpt lat="44.33077" lon="2.6475">
        <ele>665.3696289</ele>
        <time>2014-03-15T09:58:28Z</time>
      </trkpt>
      <trkpt lat="44.33084" lon="2.64724">
        <ele>666.3308105</ele>
        <time>2014-03-15T09:58:38Z</time>
      </trkpt>
      <trkpt lat="44.33089" lon="2.64705">
        <ele>667.7727051</ele>
        <time>2014-03-15T09:58:46Z</time>
      </trkpt>
      <trkpt lat="44.33092" lon="2.64689">
        <ele>669.2150879</ele>
        <time>2014-03-15T09:58:54Z</time>
      </trkpt>
      <trkpt lat="44.33093" lon="2.64688">
        <ele>669.6958008</ele>
        <time>2014-03-15T09:59:00Z</time>
      </trkpt>
      <trkpt lat="44.33092" lon="2.64688">
        <ele>670.1762695</ele>
        <time>2014-03-15T09:59:31Z</time>
      </trkpt>
      <trkpt lat="44.33091" lon="2.64689">
        <ele>671.1376953</ele>
        <time>2014-03-15T09:59:36Z</time>
      </trkpt>
      <trkpt lat="44.33092" lon="2.64687">
        <ele>670.6569824</ele>
        <time>2014-03-15T09:59:40Z</time>
      </trkpt>
      <trkpt lat="44.33095" lon="2.6467">
        <ele>669.6958008</ele>
        <time>2014-03-15T09:59:48Z</time>
      </trkpt>
      <trkpt lat="44.33099" lon="2.64648">
        <ele>669.6958008</ele>
        <time>2014-03-15T09:59:56Z</time>
      </trkpt>
      <trkpt lat="44.33102" lon="2.64634">
        <ele>669.6958008</ele>
        <time>2014-03-15T10:00:01Z</time>
      </trkpt>
      <trkpt lat="44.33105" lon="2.64621">
        <ele>669.2150879</ele>
        <time>2014-03-15T10:00:05Z</time>
      </trkpt>
      <trkpt lat="44.33105" lon="2.6461">
        <ele>669.6958008</ele>
        <time>2014-03-15T10:00:09Z</time>
      </trkpt>
      <trkpt lat="44.33112" lon="2.64582">
        <ele>669.2150879</ele>
        <time>2014-03-15T10:00:17Z</time>
      </trkpt>
      <trkpt lat="44.33123" lon="2.64558">
        <ele>669.2150879</ele>
        <time>2014-03-15T10:00:24Z</time>
      </trkpt>
      <trkpt lat="44.33133" lon="2.6453">
        <ele>668.2536621</ele>
        <time>2014-03-15T10:00:31Z</time>
      </trkpt>
      <trkpt lat="44.33146" lon="2.64495">
        <ele>667.7727051</ele>
        <time>2014-03-15T10:00:39Z</time>
      </trkpt>
      <trkpt lat="44.33159" lon="2.64463">
        <ele>667.7727051</ele>
        <time>2014-03-15T10:00:47Z</time>
      </trkpt>
      <trkpt lat="44.33168" lon="2.64421">
        <ele>666.8115234</ele>
        <time>2014-03-15T10:00:56Z</time>
      </trkpt>
      <trkpt lat="44.33178" lon="2.64386">
        <ele>666.3308105</ele>
        <time>2014-03-15T10:01:03Z</time>
      </trkpt>
      <trkpt lat="44.33192" lon="2.64346">
        <ele>665.3696289</ele>
        <time>2014-03-15T10:01:11Z</time>
      </trkpt>
      <trkpt lat="44.33208" lon="2.64305">
        <ele>664.888916</ele>
        <time>2014-03-15T10:01:19Z</time>
      </trkpt>
      <trkpt lat="44.33226" lon="2.64263">
        <ele>663.9274902</ele>
        <time>2014-03-15T10:01:27Z</time>
      </trkpt>
      <trkpt lat="44.33243" lon="2.64215">
        <ele>662.4855957</ele>
        <time>2014-03-15T10:01:35Z</time>
      </trkpt>
      <trkpt lat="44.33259" lon="2.64164">
        <ele>662.005127</ele>
        <time>2014-03-15T10:01:43Z</time>
      </trkpt>
      <trkpt lat="44.33271" lon="2.64111">
        <ele>660.5629883</ele>
        <time>2014-03-15T10:01:50Z</time>
      </trkpt>
      <trkpt lat="44.3328" lon="2.64057">
        <ele>659.6018066</ele>
        <time>2014-03-15T10:01:56Z</time>
      </trkpt>
      <trkpt lat="44.33282" lon="2.64038">
        <ele>659.6018066</ele>
        <time>2014-03-15T10:01:58Z</time>
      </trkpt>
      <trkpt lat="44.33296" lon="2.63973">
        <ele>657.6791992</ele>
        <time>2014-03-15T10:02:05Z</time>
      </trkpt>
      <trkpt lat="44.33303" lon="2.63923">
        <ele>655.7565918</ele>
        <time>2014-03-15T10:02:10Z</time>
      </trkpt>
      <trkpt lat="44.33322" lon="2.63844">
        <ele>651.4304199</ele>
        <time>2014-03-15T10:02:18Z</time>
      </trkpt>
      <trkpt lat="44.33338" lon="2.63783">
        <ele>647.1044922</ele>
        <time>2014-03-15T10:02:24Z</time>
      </trkpt>
      <trkpt lat="44.33346" lon="2.63755">
        <ele>644.7011719</ele>
        <time>2014-03-15T10:02:27Z</time>
      </trkpt>
      <trkpt lat="44.33354" lon="2.63719">
        <ele>641.8173828</ele>
        <time>2014-03-15T10:02:31Z</time>
      </trkpt>
      <trkpt lat="44.33366" lon="2.63686">
        <ele>638.9335938</ele>
        <time>2014-03-15T10:02:35Z</time>
      </trkpt>
      <trkpt lat="44.33387" lon="2.63649">
        <ele>634.6074219</ele>
        <time>2014-03-15T10:02:41Z</time>
      </trkpt>
      <trkpt lat="44.33412" lon="2.63615">
        <ele>628.3588867</ele>
        <time>2014-03-15T10:02:46Z</time>
      </trkpt>
      <trkpt lat="44.33432" lon="2.6359">
        <ele>625.4748535</ele>
        <time>2014-03-15T10:02:49Z</time>
      </trkpt>
      <trkpt lat="44.33449" lon="2.63554">
        <ele>624.032959</ele>
        <time>2014-03-15T10:02:53Z</time>
      </trkpt>
      <trkpt lat="44.33449" lon="2.63544">
        <ele>624.032959</ele>
        <time>2014-03-15T10:02:54Z</time>
      </trkpt>
      <trkpt lat="44.33461" lon="2.63489">
        <ele>624.5136719</ele>
        <time>2014-03-15T10:03:01Z</time>
      </trkpt>
      <trkpt lat="44.33474" lon="2.63452">
        <ele>625.9555664</ele>
        <time>2014-03-15T10:03:07Z</time>
      </trkpt>
      <trkpt lat="44.33479" lon="2.63436">
        <ele>626.9169922</ele>
        <time>2014-03-15T10:03:10Z</time>
      </trkpt>
      <trkpt lat="44.33482" lon="2.63406">
        <ele>627.3977051</ele>
        <time>2014-03-15T10:03:15Z</time>
      </trkpt>
      <trkpt lat="44.33482" lon="2.634">
        <ele>627.3977051</ele>
        <time>2014-03-15T10:03:16Z</time>
      </trkpt>
      <trkpt lat="44.33485" lon="2.63363">
        <ele>629.3200684</ele>
        <time>2014-03-15T10:03:23Z</time>
      </trkpt>
      <trkpt lat="44.33489" lon="2.63333">
        <ele>628.8395996</ele>
        <time>2014-03-15T10:03:30Z</time>
      </trkpt>
      <trkpt lat="44.33494" lon="2.63312">
        <ele>629.3200684</ele>
        <time>2014-03-15T10:03:36Z</time>
      </trkpt>
      <trkpt lat="44.33501" lon="2.63285">
        <ele>629.3200684</ele>
        <time>2014-03-15T10:03:44Z</time>
      </trkpt>
      <trkpt lat="44.33507" lon="2.63262">
        <ele>629.8007813</ele>
        <time>2014-03-15T10:03:51Z</time>
      </trkpt>
      <trkpt lat="44.33515" lon="2.63238">
        <ele>631.7233887</ele>
        <time>2014-03-15T10:03:59Z</time>
      </trkpt>
      <trkpt lat="44.33521" lon="2.63213">
        <ele>631.7233887</ele>
        <time>2014-03-15T10:04:06Z</time>
      </trkpt>
      <trkpt lat="44.33527" lon="2.63183">
        <ele>633.1652832</ele>
        <time>2014-03-15T10:04:15Z</time>
      </trkpt>
      <trkpt lat="44.33536" lon="2.63154">
        <ele>633.6459961</ele>
        <time>2014-03-15T10:04:24Z</time>
      </trkpt>
      <trkpt lat="44.33548" lon="2.63127">
        <ele>634.126709</ele>
        <time>2014-03-15T10:04:33Z</time>
      </trkpt>
      <trkpt lat="44.33557" lon="2.63104">
        <ele>633.6459961</ele>
        <time>2014-03-15T10:04:42Z</time>
      </trkpt>
      <trkpt lat="44.33561" lon="2.63083">
        <ele>633.6459961</ele>
        <time>2014-03-15T10:04:49Z</time>
      </trkpt>
      <trkpt lat="44.33562" lon="2.63065">
        <ele>634.126709</ele>
        <time>2014-03-15T10:04:53Z</time>
      </trkpt>
      <trkpt lat="44.33564" lon="2.63043">
        <ele>636.0495605</ele>
        <time>2014-03-15T10:04:59Z</time>
      </trkpt>
      <trkpt lat="44.33569" lon="2.63035">
        <ele>638.4528809</ele>
        <time>2014-03-15T10:05:05Z</time>
      </trkpt>
      <trkpt lat="44.3357" lon="2.63034">
        <ele>639.4140625</ele>
        <time>2014-03-15T10:05:07Z</time>
      </trkpt>
      <trkpt lat="44.33574" lon="2.63032">
        <ele>640.855957</ele>
        <time>2014-03-15T10:05:15Z</time>
      </trkpt>
      <trkpt lat="44.33578" lon="2.63031">
        <ele>641.3366699</ele>
        <time>2014-03-15T10:05:19Z</time>
      </trkpt>
      <trkpt lat="44.33575" lon="2.6302">
        <ele>642.7788086</ele>
        <time>2014-03-15T10:05:25Z</time>
      </trkpt>
      <trkpt lat="44.33573" lon="2.63">
        <ele>642.7788086</ele>
        <time>2014-03-15T10:05:31Z</time>
      </trkpt>
      <trkpt lat="44.33572" lon="2.62981">
        <ele>644.2207031</ele>
        <time>2014-03-15T10:05:37Z</time>
      </trkpt>
      <trkpt lat="44.3357" lon="2.62967">
        <ele>645.1818848</ele>
        <time>2014-03-15T10:05:42Z</time>
      </trkpt>
      <trkpt lat="44.33567" lon="2.62951">
        <ele>646.6240234</ele>
        <time>2014-03-15T10:05:48Z</time>
      </trkpt>
      <trkpt lat="44.33566" lon="2.62934">
        <ele>647.5852051</ele>
        <time>2014-03-15T10:05:55Z</time>
      </trkpt>
      <trkpt lat="44.33566" lon="2.62932">
        <ele>647.5852051</ele>
        <time>2014-03-15T10:05:56Z</time>
      </trkpt>
      <trkpt lat="44.3357" lon="2.62927">
        <ele>647.5852051</ele>
        <time>2014-03-15T10:06:00Z</time>
      </trkpt>
      <trkpt lat="44.33575" lon="2.62924">
        <ele>647.5852051</ele>
        <time>2014-03-15T10:06:07Z</time>
      </trkpt>
      <trkpt lat="44.3358" lon="2.62923">
        <ele>647.5852051</ele>
        <time>2014-03-15T10:06:10Z</time>
      </trkpt>
      <trkpt lat="44.33582" lon="2.62923">
        <ele>648.5463867</ele>
        <time>2014-03-15T10:06:15Z</time>
      </trkpt>
      <trkpt lat="44.33581" lon="2.62923">
        <ele>649.9885254</ele>
        <time>2014-03-15T10:06:24Z</time>
      </trkpt>
      <trkpt lat="44.3358" lon="2.62924">
        <ele>651.4304199</ele>
        <time>2014-03-15T10:06:31Z</time>
      </trkpt>
      <trkpt lat="44.33581" lon="2.62923">
        <ele>652.3918457</ele>
        <time>2014-03-15T10:06:40Z</time>
      </trkpt>
      <trkpt lat="44.3358" lon="2.62922">
        <ele>652.8725586</ele>
        <time>2014-03-15T10:06:52Z</time>
      </trkpt>
      <trkpt lat="44.3358" lon="2.62921">
        <ele>652.8725586</ele>
        <time>2014-03-15T10:07:01Z</time>
      </trkpt>
      <trkpt lat="44.33579" lon="2.62921">
        <ele>655.2758789</ele>
        <time>2014-03-15T10:07:25Z</time>
      </trkpt>
      <trkpt lat="44.33583" lon="2.6292">
        <ele>653.8339844</ele>
        <time>2014-03-15T10:07:32Z</time>
      </trkpt>
      <trkpt lat="44.33585" lon="2.6292">
        <ele>653.3532715</ele>
        <time>2014-03-15T10:07:40Z</time>
      </trkpt>
      <trkpt lat="44.33581" lon="2.62921">
        <ele>652.8725586</ele>
        <time>2014-03-15T10:07:47Z</time>
      </trkpt>
      <trkpt lat="44.33582" lon="2.6292">
        <ele>651.9111328</ele>
        <time>2014-03-15T10:07:52Z</time>
      </trkpt>
      <trkpt lat="44.33581" lon="2.62921">
        <ele>651.9111328</ele>
        <time>2014-03-15T10:07:56Z</time>
      </trkpt>
    </trkseg>
  </trk>
</gpx>